<?xml version="1.0" encoding="UTF-8" standalone="no" ?>
<gpx xmlns="http://www.topografix.com/GPX/1/1" xmlns:xsi="http://www.w3.org/2001/XMLSchema-instance" xsi:schemaLocation="http://www.topografix.com/GPX/1/1 http://www.topografix.com/GPX/1/1/gpx.xsd" version="1.1" creator="VisuGPX - https://www.visugpx.com">
  <metadata>
    <name>randonnée angecourt sedan les berges de meuse</name>
    <desc><![CDATA[marche angecourt sedan les
 berges de meuse]]></desc>
  </metadata>
  <trk>
    <name><![CDATA[Tracé actuel: 28 MAI 2018 08:23]]></name>
    <trkseg>
      <trkpt lat="49.6345" lon="4.98061">
        <ele>200.57</ele>
        <time>2018-05-28T06:23:35Z</time>
      </trkpt>
      <trkpt lat="49.6345" lon="4.9806">
        <ele>199.61</ele>
        <time>2018-05-28T06:23:45Z</time>
      </trkpt>
      <trkpt lat="49.6345" lon="4.9806">
        <ele>199.61</ele>
        <time>2018-05-28T06:24:00Z</time>
      </trkpt>
      <trkpt lat="49.63442" lon="4.98045">
        <ele>197.69</ele>
        <time>2018-05-28T06:24:15Z</time>
      </trkpt>
      <trkpt lat="49.63424" lon="4.98032">
        <ele>193.36</ele>
        <time>2018-05-28T06:24:31Z</time>
      </trkpt>
      <trkpt lat="49.63412" lon="4.98014">
        <ele>189.04</ele>
        <time>2018-05-28T06:24:49Z</time>
      </trkpt>
      <trkpt lat="49.63399" lon="4.97989">
        <ele>185.19</ele>
        <time>2018-05-28T06:25:09Z</time>
      </trkpt>
      <trkpt lat="49.63399" lon="4.9799">
        <ele>185.19</ele>
        <time>2018-05-28T06:25:28Z</time>
      </trkpt>
      <trkpt lat="49.63399" lon="4.97991">
        <ele>184.71</ele>
        <time>2018-05-28T06:25:55Z</time>
      </trkpt>
      <trkpt lat="49.63399" lon="4.9799">
        <ele>184.71</ele>
        <time>2018-05-28T06:26:16Z</time>
      </trkpt>
      <trkpt lat="49.63391" lon="4.97974">
        <ele>185.67</ele>
        <time>2018-05-28T06:26:37Z</time>
      </trkpt>
      <trkpt lat="49.63387" lon="4.97941">
        <ele>180.87</ele>
        <time>2018-05-28T06:26:52Z</time>
      </trkpt>
      <trkpt lat="49.63394" lon="4.97929">
        <ele>178.46</ele>
        <time>2018-05-28T06:26:59Z</time>
      </trkpt>
      <trkpt lat="49.63412" lon="4.97916">
        <ele>177.5</ele>
        <time>2018-05-28T06:27:17Z</time>
      </trkpt>
      <trkpt lat="49.63427" lon="4.97905">
        <ele>177.5</ele>
        <time>2018-05-28T06:27:34Z</time>
      </trkpt>
      <trkpt lat="49.63441" lon="4.97899">
        <ele>175.58</ele>
        <time>2018-05-28T06:27:47Z</time>
      </trkpt>
      <trkpt lat="49.63446" lon="4.97896">
        <ele>175.58</ele>
        <time>2018-05-28T06:27:52Z</time>
      </trkpt>
      <trkpt lat="49.63462" lon="4.97878">
        <ele>175.1</ele>
        <time>2018-05-28T06:28:09Z</time>
      </trkpt>
      <trkpt lat="49.63475" lon="4.97861">
        <ele>173.66</ele>
        <time>2018-05-28T06:28:26Z</time>
      </trkpt>
      <trkpt lat="49.63486" lon="4.9784">
        <ele>171.25</ele>
        <time>2018-05-28T06:28:43Z</time>
      </trkpt>
      <trkpt lat="49.63503" lon="4.97818">
        <ele>169.81</ele>
        <time>2018-05-28T06:29:01Z</time>
      </trkpt>
      <trkpt lat="49.63521" lon="4.97799">
        <ele>168.37</ele>
        <time>2018-05-28T06:29:22Z</time>
      </trkpt>
      <trkpt lat="49.63538" lon="4.97776">
        <ele>166.45</ele>
        <time>2018-05-28T06:29:43Z</time>
      </trkpt>
      <trkpt lat="49.63539" lon="4.97772">
        <ele>166.45</ele>
        <time>2018-05-28T06:29:46Z</time>
      </trkpt>
      <trkpt lat="49.63544" lon="4.97745">
        <ele>169.81</ele>
        <time>2018-05-28T06:30:05Z</time>
      </trkpt>
      <trkpt lat="49.63556" lon="4.97703">
        <ele>172.21</ele>
        <time>2018-05-28T06:30:26Z</time>
      </trkpt>
      <trkpt lat="49.63562" lon="4.97695">
        <ele>171.73</ele>
        <time>2018-05-28T06:30:33Z</time>
      </trkpt>
      <trkpt lat="49.63569" lon="4.97688">
        <ele>170.77</ele>
        <time>2018-05-28T06:30:41Z</time>
      </trkpt>
      <trkpt lat="49.63586" lon="4.97672">
        <ele>167.41</ele>
        <time>2018-05-28T06:30:56Z</time>
      </trkpt>
      <trkpt lat="49.63608" lon="4.97664">
        <ele>169.33</ele>
        <time>2018-05-28T06:31:14Z</time>
      </trkpt>
      <trkpt lat="49.63625" lon="4.97675">
        <ele>170.77</ele>
        <time>2018-05-28T06:31:32Z</time>
      </trkpt>
      <trkpt lat="49.63648" lon="4.97697">
        <ele>169.33</ele>
        <time>2018-05-28T06:31:53Z</time>
      </trkpt>
      <trkpt lat="49.63664" lon="4.97718">
        <ele>171.25</ele>
        <time>2018-05-28T06:32:12Z</time>
      </trkpt>
      <trkpt lat="49.63687" lon="4.97734">
        <ele>170.29</ele>
        <time>2018-05-28T06:32:33Z</time>
      </trkpt>
      <trkpt lat="49.63703" lon="4.97747">
        <ele>170.77</ele>
        <time>2018-05-28T06:32:51Z</time>
      </trkpt>
      <trkpt lat="49.63703" lon="4.97747">
        <ele>170.77</ele>
        <time>2018-05-28T06:32:52Z</time>
      </trkpt>
      <trkpt lat="49.63722" lon="4.97763">
        <ele>172.21</ele>
        <time>2018-05-28T06:33:11Z</time>
      </trkpt>
      <trkpt lat="49.6375" lon="4.97775">
        <ele>172.21</ele>
        <time>2018-05-28T06:33:33Z</time>
      </trkpt>
      <trkpt lat="49.63771" lon="4.97787">
        <ele>172.21</ele>
        <time>2018-05-28T06:33:52Z</time>
      </trkpt>
      <trkpt lat="49.63768" lon="4.9778">
        <ele>171.25</ele>
        <time>2018-05-28T06:34:15Z</time>
      </trkpt>
      <trkpt lat="49.63767" lon="4.97779">
        <ele>169.33</ele>
        <time>2018-05-28T06:34:37Z</time>
      </trkpt>
      <trkpt lat="49.63767" lon="4.97777">
        <ele>169.81</ele>
        <time>2018-05-28T06:34:58Z</time>
      </trkpt>
      <trkpt lat="49.63767" lon="4.97776">
        <ele>170.77</ele>
        <time>2018-05-28T06:35:11Z</time>
      </trkpt>
      <trkpt lat="49.63774" lon="4.97783">
        <ele>169.81</ele>
        <time>2018-05-28T06:35:27Z</time>
      </trkpt>
      <trkpt lat="49.63775" lon="4.97782">
        <ele>170.29</ele>
        <time>2018-05-28T06:35:54Z</time>
      </trkpt>
      <trkpt lat="49.63774" lon="4.9778">
        <ele>169.81</ele>
        <time>2018-05-28T06:36:19Z</time>
      </trkpt>
      <trkpt lat="49.63776" lon="4.97782">
        <ele>171.25</ele>
        <time>2018-05-28T06:36:47Z</time>
      </trkpt>
      <trkpt lat="49.63778" lon="4.97784">
        <ele>171.73</ele>
        <time>2018-05-28T06:36:50Z</time>
      </trkpt>
      <trkpt lat="49.63802" lon="4.97807">
        <ele>175.1</ele>
        <time>2018-05-28T06:37:11Z</time>
      </trkpt>
      <trkpt lat="49.63826" lon="4.97833">
        <ele>177.98</ele>
        <time>2018-05-28T06:37:33Z</time>
      </trkpt>
      <trkpt lat="49.63838" lon="4.97843">
        <ele>175.58</ele>
        <time>2018-05-28T06:37:52Z</time>
      </trkpt>
      <trkpt lat="49.63849" lon="4.97859">
        <ele>173.66</ele>
        <time>2018-05-28T06:38:13Z</time>
      </trkpt>
      <trkpt lat="49.63859" lon="4.97871">
        <ele>171.25</ele>
        <time>2018-05-28T06:38:35Z</time>
      </trkpt>
      <trkpt lat="49.6387" lon="4.9788">
        <ele>168.85</ele>
        <time>2018-05-28T06:38:57Z</time>
      </trkpt>
      <trkpt lat="49.63898" lon="4.97905">
        <ele>167.41</ele>
        <time>2018-05-28T06:39:16Z</time>
      </trkpt>
      <trkpt lat="49.63934" lon="4.9794">
        <ele>168.85</ele>
        <time>2018-05-28T06:39:35Z</time>
      </trkpt>
      <trkpt lat="49.63962" lon="4.97969">
        <ele>169.33</ele>
        <time>2018-05-28T06:39:55Z</time>
      </trkpt>
      <trkpt lat="49.63989" lon="4.97995">
        <ele>168.85</ele>
        <time>2018-05-28T06:40:19Z</time>
      </trkpt>
      <trkpt lat="49.64014" lon="4.98021">
        <ele>169.81</ele>
        <time>2018-05-28T06:40:39Z</time>
      </trkpt>
      <trkpt lat="49.64035" lon="4.98042">
        <ele>171.73</ele>
        <time>2018-05-28T06:40:59Z</time>
      </trkpt>
      <trkpt lat="49.64056" lon="4.98062">
        <ele>173.17</ele>
        <time>2018-05-28T06:41:21Z</time>
      </trkpt>
      <trkpt lat="49.64073" lon="4.98077">
        <ele>172.21</ele>
        <time>2018-05-28T06:41:37Z</time>
      </trkpt>
      <trkpt lat="49.64094" lon="4.98093">
        <ele>171.73</ele>
        <time>2018-05-28T06:41:57Z</time>
      </trkpt>
      <trkpt lat="49.64121" lon="4.98122">
        <ele>172.69</ele>
        <time>2018-05-28T06:42:20Z</time>
      </trkpt>
      <trkpt lat="49.64143" lon="4.98144">
        <ele>174.14</ele>
        <time>2018-05-28T06:42:41Z</time>
      </trkpt>
      <trkpt lat="49.64162" lon="4.98166">
        <ele>172.69</ele>
        <time>2018-05-28T06:43:00Z</time>
      </trkpt>
      <trkpt lat="49.64181" lon="4.98187">
        <ele>169.81</ele>
        <time>2018-05-28T06:43:19Z</time>
      </trkpt>
      <trkpt lat="49.64196" lon="4.98194">
        <ele>167.41</ele>
        <time>2018-05-28T06:43:35Z</time>
      </trkpt>
      <trkpt lat="49.64219" lon="4.98218">
        <ele>167.41</ele>
        <time>2018-05-28T06:43:54Z</time>
      </trkpt>
      <trkpt lat="49.64238" lon="4.98237">
        <ele>167.41</ele>
        <time>2018-05-28T06:44:14Z</time>
      </trkpt>
      <trkpt lat="49.64255" lon="4.98253">
        <ele>166.45</ele>
        <time>2018-05-28T06:44:33Z</time>
      </trkpt>
      <trkpt lat="49.64266" lon="4.98265">
        <ele>166.93</ele>
        <time>2018-05-28T06:44:44Z</time>
      </trkpt>
      <trkpt lat="49.64285" lon="4.9828">
        <ele>167.89</ele>
        <time>2018-05-28T06:45:03Z</time>
      </trkpt>
      <trkpt lat="49.64304" lon="4.98298">
        <ele>166.93</ele>
        <time>2018-05-28T06:45:22Z</time>
      </trkpt>
      <trkpt lat="49.64321" lon="4.98313">
        <ele>166.45</ele>
        <time>2018-05-28T06:45:40Z</time>
      </trkpt>
      <trkpt lat="49.64341" lon="4.98329">
        <ele>166.45</ele>
        <time>2018-05-28T06:45:58Z</time>
      </trkpt>
      <trkpt lat="49.64363" lon="4.98348">
        <ele>166.45</ele>
        <time>2018-05-28T06:46:16Z</time>
      </trkpt>
      <trkpt lat="49.64382" lon="4.98363">
        <ele>168.37</ele>
        <time>2018-05-28T06:46:33Z</time>
      </trkpt>
      <trkpt lat="49.64396" lon="4.98373">
        <ele>166.45</ele>
        <time>2018-05-28T06:46:49Z</time>
      </trkpt>
      <trkpt lat="49.64417" lon="4.98386">
        <ele>165.96</ele>
        <time>2018-05-28T06:47:06Z</time>
      </trkpt>
      <trkpt lat="49.64422" lon="4.98389">
        <ele>165.48</ele>
        <time>2018-05-28T06:47:10Z</time>
      </trkpt>
      <trkpt lat="49.64437" lon="4.98398">
        <ele>165.48</ele>
        <time>2018-05-28T06:47:27Z</time>
      </trkpt>
      <trkpt lat="49.64456" lon="4.98411">
        <ele>164.04</ele>
        <time>2018-05-28T06:47:44Z</time>
      </trkpt>
      <trkpt lat="49.64474" lon="4.98424">
        <ele>161.64</ele>
        <time>2018-05-28T06:48:00Z</time>
      </trkpt>
      <trkpt lat="49.64496" lon="4.98435">
        <ele>162.12</ele>
        <time>2018-05-28T06:48:20Z</time>
      </trkpt>
      <trkpt lat="49.64518" lon="4.98449">
        <ele>161.64</ele>
        <time>2018-05-28T06:48:38Z</time>
      </trkpt>
      <trkpt lat="49.6454" lon="4.9846">
        <ele>161.64</ele>
        <time>2018-05-28T06:48:55Z</time>
      </trkpt>
      <trkpt lat="49.64565" lon="4.9847">
        <ele>159.24</ele>
        <time>2018-05-28T06:49:16Z</time>
      </trkpt>
      <trkpt lat="49.64582" lon="4.98481">
        <ele>160.68</ele>
        <time>2018-05-28T06:49:33Z</time>
      </trkpt>
      <trkpt lat="49.64605" lon="4.98495">
        <ele>161.64</ele>
        <time>2018-05-28T06:49:52Z</time>
      </trkpt>
      <trkpt lat="49.64623" lon="4.98503">
        <ele>162.12</ele>
        <time>2018-05-28T06:50:10Z</time>
      </trkpt>
      <trkpt lat="49.64647" lon="4.98519">
        <ele>162.6</ele>
        <time>2018-05-28T06:50:31Z</time>
      </trkpt>
      <trkpt lat="49.64667" lon="4.98528">
        <ele>162.12</ele>
        <time>2018-05-28T06:50:49Z</time>
      </trkpt>
      <trkpt lat="49.64686" lon="4.98544">
        <ele>160.68</ele>
        <time>2018-05-28T06:51:07Z</time>
      </trkpt>
      <trkpt lat="49.64708" lon="4.98558">
        <ele>160.2</ele>
        <time>2018-05-28T06:51:27Z</time>
      </trkpt>
      <trkpt lat="49.64726" lon="4.98572">
        <ele>158.75</ele>
        <time>2018-05-28T06:51:44Z</time>
      </trkpt>
      <trkpt lat="49.64741" lon="4.98583">
        <ele>158.75</ele>
        <time>2018-05-28T06:51:57Z</time>
      </trkpt>
      <trkpt lat="49.64762" lon="4.9859">
        <ele>157.31</ele>
        <time>2018-05-28T06:52:15Z</time>
      </trkpt>
      <trkpt lat="49.6478" lon="4.98597">
        <ele>156.35</ele>
        <time>2018-05-28T06:52:30Z</time>
      </trkpt>
      <trkpt lat="49.64803" lon="4.98608">
        <ele>154.43</ele>
        <time>2018-05-28T06:52:50Z</time>
      </trkpt>
      <trkpt lat="49.6483" lon="4.98619">
        <ele>156.35</ele>
        <time>2018-05-28T06:53:11Z</time>
      </trkpt>
      <trkpt lat="49.64852" lon="4.98631">
        <ele>156.35</ele>
        <time>2018-05-28T06:53:30Z</time>
      </trkpt>
      <trkpt lat="49.64876" lon="4.98648">
        <ele>154.43</ele>
        <time>2018-05-28T06:53:53Z</time>
      </trkpt>
      <trkpt lat="49.64903" lon="4.98671">
        <ele>156.35</ele>
        <time>2018-05-28T06:54:16Z</time>
      </trkpt>
      <trkpt lat="49.64923" lon="4.98679">
        <ele>156.83</ele>
        <time>2018-05-28T06:54:32Z</time>
      </trkpt>
      <trkpt lat="49.64943" lon="4.98693">
        <ele>155.87</ele>
        <time>2018-05-28T06:54:50Z</time>
      </trkpt>
      <trkpt lat="49.64966" lon="4.98714">
        <ele>154.91</ele>
        <time>2018-05-28T06:55:12Z</time>
      </trkpt>
      <trkpt lat="49.64987" lon="4.98733">
        <ele>153.47</ele>
        <time>2018-05-28T06:55:36Z</time>
      </trkpt>
      <trkpt lat="49.65008" lon="4.98753">
        <ele>153.47</ele>
        <time>2018-05-28T06:55:55Z</time>
      </trkpt>
      <trkpt lat="49.6503" lon="4.98773">
        <ele>154.43</ele>
        <time>2018-05-28T06:56:14Z</time>
      </trkpt>
      <trkpt lat="49.65048" lon="4.98788">
        <ele>153.95</ele>
        <time>2018-05-28T06:56:32Z</time>
      </trkpt>
      <trkpt lat="49.65069" lon="4.98809">
        <ele>153.47</ele>
        <time>2018-05-28T06:56:52Z</time>
      </trkpt>
      <trkpt lat="49.65091" lon="4.98834">
        <ele>152.99</ele>
        <time>2018-05-28T06:57:12Z</time>
      </trkpt>
      <trkpt lat="49.65112" lon="4.98856">
        <ele>152.03</ele>
        <time>2018-05-28T06:57:34Z</time>
      </trkpt>
      <trkpt lat="49.6512" lon="4.98867">
        <ele>150.1</ele>
        <time>2018-05-28T06:57:45Z</time>
      </trkpt>
      <trkpt lat="49.65144" lon="4.98892">
        <ele>150.1</ele>
        <time>2018-05-28T06:58:07Z</time>
      </trkpt>
      <trkpt lat="49.65165" lon="4.98911">
        <ele>148.66</ele>
        <time>2018-05-28T06:58:30Z</time>
      </trkpt>
      <trkpt lat="49.6519" lon="4.98935">
        <ele>147.22</ele>
        <time>2018-05-28T06:58:52Z</time>
      </trkpt>
      <trkpt lat="49.65215" lon="4.98956">
        <ele>150.1</ele>
        <time>2018-05-28T06:59:14Z</time>
      </trkpt>
      <trkpt lat="49.65236" lon="4.98972">
        <ele>151.06</ele>
        <time>2018-05-28T06:59:34Z</time>
      </trkpt>
      <trkpt lat="49.65255" lon="4.98987">
        <ele>151.06</ele>
        <time>2018-05-28T06:59:53Z</time>
      </trkpt>
      <trkpt lat="49.65277" lon="4.99006">
        <ele>152.03</ele>
        <time>2018-05-28T07:00:12Z</time>
      </trkpt>
      <trkpt lat="49.65301" lon="4.99026">
        <ele>153.47</ele>
        <time>2018-05-28T07:00:31Z</time>
      </trkpt>
      <trkpt lat="49.65319" lon="4.99043">
        <ele>152.99</ele>
        <time>2018-05-28T07:00:51Z</time>
      </trkpt>
      <trkpt lat="49.6532" lon="4.99048">
        <ele>152.99</ele>
        <time>2018-05-28T07:00:55Z</time>
      </trkpt>
      <trkpt lat="49.65332" lon="4.99084">
        <ele>152.99</ele>
        <time>2018-05-28T07:01:18Z</time>
      </trkpt>
      <trkpt lat="49.65343" lon="4.99113">
        <ele>154.43</ele>
        <time>2018-05-28T07:01:35Z</time>
      </trkpt>
      <trkpt lat="49.65344" lon="4.99117">
        <ele>154.43</ele>
        <time>2018-05-28T07:01:37Z</time>
      </trkpt>
      <trkpt lat="49.65345" lon="4.99126">
        <ele>153.95</ele>
        <time>2018-05-28T07:01:42Z</time>
      </trkpt>
      <trkpt lat="49.65362" lon="4.99152">
        <ele>151.54</ele>
        <time>2018-05-28T07:02:05Z</time>
      </trkpt>
      <trkpt lat="49.65364" lon="4.99155">
        <ele>151.06</ele>
        <time>2018-05-28T07:02:07Z</time>
      </trkpt>
      <trkpt lat="49.65368" lon="4.99159">
        <ele>150.58</ele>
        <time>2018-05-28T07:02:11Z</time>
      </trkpt>
      <trkpt lat="49.65377" lon="4.99178">
        <ele>150.1</ele>
        <time>2018-05-28T07:02:29Z</time>
      </trkpt>
      <trkpt lat="49.6538" lon="4.99183">
        <ele>150.58</ele>
        <time>2018-05-28T07:02:42Z</time>
      </trkpt>
      <trkpt lat="49.65383" lon="4.99186">
        <ele>152.03</ele>
        <time>2018-05-28T07:02:55Z</time>
      </trkpt>
      <trkpt lat="49.65399" lon="4.99203">
        <ele>154.43</ele>
        <time>2018-05-28T07:03:09Z</time>
      </trkpt>
      <trkpt lat="49.65408" lon="4.99217">
        <ele>154.91</ele>
        <time>2018-05-28T07:03:19Z</time>
      </trkpt>
      <trkpt lat="49.65426" lon="4.99235">
        <ele>150.58</ele>
        <time>2018-05-28T07:03:36Z</time>
      </trkpt>
      <trkpt lat="49.65444" lon="4.99269">
        <ele>149.14</ele>
        <time>2018-05-28T07:03:57Z</time>
      </trkpt>
      <trkpt lat="49.65461" lon="4.99283">
        <ele>150.58</ele>
        <time>2018-05-28T07:04:15Z</time>
      </trkpt>
      <trkpt lat="49.65463" lon="4.99282">
        <ele>150.1</ele>
        <time>2018-05-28T07:04:17Z</time>
      </trkpt>
      <trkpt lat="49.6547" lon="4.99273">
        <ele>150.1</ele>
        <time>2018-05-28T07:04:25Z</time>
      </trkpt>
      <trkpt lat="49.65481" lon="4.9924">
        <ele>152.51</ele>
        <time>2018-05-28T07:04:43Z</time>
      </trkpt>
      <trkpt lat="49.65491" lon="4.99213">
        <ele>154.91</ele>
        <time>2018-05-28T07:05:02Z</time>
      </trkpt>
      <trkpt lat="49.65496" lon="4.99199">
        <ele>155.39</ele>
        <time>2018-05-28T07:05:11Z</time>
      </trkpt>
      <trkpt lat="49.65498" lon="4.99197">
        <ele>155.39</ele>
        <time>2018-05-28T07:05:13Z</time>
      </trkpt>
      <trkpt lat="49.65517" lon="4.99208">
        <ele>161.16</ele>
        <time>2018-05-28T07:05:31Z</time>
      </trkpt>
      <trkpt lat="49.65535" lon="4.99217">
        <ele>163.08</ele>
        <time>2018-05-28T07:05:49Z</time>
      </trkpt>
      <trkpt lat="49.65557" lon="4.99235">
        <ele>162.6</ele>
        <time>2018-05-28T07:06:09Z</time>
      </trkpt>
      <trkpt lat="49.65566" lon="4.99242">
        <ele>161.16</ele>
        <time>2018-05-28T07:06:19Z</time>
      </trkpt>
      <trkpt lat="49.65582" lon="4.99221">
        <ele>159.72</ele>
        <time>2018-05-28T07:06:36Z</time>
      </trkpt>
      <trkpt lat="49.65592" lon="4.99206">
        <ele>159.24</ele>
        <time>2018-05-28T07:06:51Z</time>
      </trkpt>
      <trkpt lat="49.65606" lon="4.99181">
        <ele>156.83</ele>
        <time>2018-05-28T07:07:10Z</time>
      </trkpt>
      <trkpt lat="49.65621" lon="4.99153">
        <ele>154.43</ele>
        <time>2018-05-28T07:07:31Z</time>
      </trkpt>
      <trkpt lat="49.65637" lon="4.99124">
        <ele>152.99</ele>
        <time>2018-05-28T07:07:52Z</time>
      </trkpt>
      <trkpt lat="49.65655" lon="4.99092">
        <ele>152.03</ele>
        <time>2018-05-28T07:08:14Z</time>
      </trkpt>
      <trkpt lat="49.65672" lon="4.99065">
        <ele>151.54</ele>
        <time>2018-05-28T07:08:35Z</time>
      </trkpt>
      <trkpt lat="49.65687" lon="4.99041">
        <ele>153.95</ele>
        <time>2018-05-28T07:08:54Z</time>
      </trkpt>
      <trkpt lat="49.65703" lon="4.99014">
        <ele>155.39</ele>
        <time>2018-05-28T07:09:13Z</time>
      </trkpt>
      <trkpt lat="49.65721" lon="4.98984">
        <ele>156.35</ele>
        <time>2018-05-28T07:09:34Z</time>
      </trkpt>
      <trkpt lat="49.65736" lon="4.98955">
        <ele>155.39</ele>
        <time>2018-05-28T07:09:55Z</time>
      </trkpt>
      <trkpt lat="49.65752" lon="4.98927">
        <ele>155.39</ele>
        <time>2018-05-28T07:10:16Z</time>
      </trkpt>
      <trkpt lat="49.65769" lon="4.98894">
        <ele>154.91</ele>
        <time>2018-05-28T07:10:39Z</time>
      </trkpt>
      <trkpt lat="49.65784" lon="4.98865">
        <ele>155.87</ele>
        <time>2018-05-28T07:11:00Z</time>
      </trkpt>
      <trkpt lat="49.65803" lon="4.98832">
        <ele>155.39</ele>
        <time>2018-05-28T07:11:23Z</time>
      </trkpt>
      <trkpt lat="49.65818" lon="4.98804">
        <ele>155.39</ele>
        <time>2018-05-28T07:11:43Z</time>
      </trkpt>
      <trkpt lat="49.65831" lon="4.98776">
        <ele>155.39</ele>
        <time>2018-05-28T07:12:02Z</time>
      </trkpt>
      <trkpt lat="49.6585" lon="4.98744">
        <ele>155.39</ele>
        <time>2018-05-28T07:12:24Z</time>
      </trkpt>
      <trkpt lat="49.65865" lon="4.98715">
        <ele>152.51</ele>
        <time>2018-05-28T07:12:46Z</time>
      </trkpt>
      <trkpt lat="49.6588" lon="4.98686">
        <ele>152.51</ele>
        <time>2018-05-28T07:13:06Z</time>
      </trkpt>
      <trkpt lat="49.65892" lon="4.98659">
        <ele>152.51</ele>
        <time>2018-05-28T07:13:23Z</time>
      </trkpt>
      <trkpt lat="49.65906" lon="4.98634">
        <ele>153.95</ele>
        <time>2018-05-28T07:13:41Z</time>
      </trkpt>
      <trkpt lat="49.65921" lon="4.98604">
        <ele>152.99</ele>
        <time>2018-05-28T07:14:02Z</time>
      </trkpt>
      <trkpt lat="49.65935" lon="4.98573">
        <ele>152.03</ele>
        <time>2018-05-28T07:14:22Z</time>
      </trkpt>
      <trkpt lat="49.65951" lon="4.9854">
        <ele>153.95</ele>
        <time>2018-05-28T07:14:43Z</time>
      </trkpt>
      <trkpt lat="49.65966" lon="4.98509">
        <ele>158.27</ele>
        <time>2018-05-28T07:15:03Z</time>
      </trkpt>
      <trkpt lat="49.65973" lon="4.98493">
        <ele>159.24</ele>
        <time>2018-05-28T07:15:16Z</time>
      </trkpt>
      <trkpt lat="49.65985" lon="4.98471">
        <ele>157.79</ele>
        <time>2018-05-28T07:15:35Z</time>
      </trkpt>
      <trkpt lat="49.66006" lon="4.98438">
        <ele>157.79</ele>
        <time>2018-05-28T07:15:59Z</time>
      </trkpt>
      <trkpt lat="49.66023" lon="4.98409">
        <ele>159.72</ele>
        <time>2018-05-28T07:16:20Z</time>
      </trkpt>
      <trkpt lat="49.6604" lon="4.9838">
        <ele>160.2</ele>
        <time>2018-05-28T07:16:40Z</time>
      </trkpt>
      <trkpt lat="49.66057" lon="4.98347">
        <ele>161.64</ele>
        <time>2018-05-28T07:17:03Z</time>
      </trkpt>
      <trkpt lat="49.66074" lon="4.98315">
        <ele>160.2</ele>
        <time>2018-05-28T07:17:24Z</time>
      </trkpt>
      <trkpt lat="49.66088" lon="4.98285">
        <ele>158.75</ele>
        <time>2018-05-28T07:17:46Z</time>
      </trkpt>
      <trkpt lat="49.66103" lon="4.98257">
        <ele>158.75</ele>
        <time>2018-05-28T07:18:04Z</time>
      </trkpt>
      <trkpt lat="49.66119" lon="4.98223">
        <ele>159.72</ele>
        <time>2018-05-28T07:18:28Z</time>
      </trkpt>
      <trkpt lat="49.66139" lon="4.98187">
        <ele>158.75</ele>
        <time>2018-05-28T07:18:51Z</time>
      </trkpt>
      <trkpt lat="49.66154" lon="4.98155">
        <ele>156.35</ele>
        <time>2018-05-28T07:19:15Z</time>
      </trkpt>
      <trkpt lat="49.66174" lon="4.98119">
        <ele>157.31</ele>
        <time>2018-05-28T07:19:39Z</time>
      </trkpt>
      <trkpt lat="49.66188" lon="4.98089">
        <ele>154.43</ele>
        <time>2018-05-28T07:19:59Z</time>
      </trkpt>
      <trkpt lat="49.66203" lon="4.98062">
        <ele>156.35</ele>
        <time>2018-05-28T07:20:19Z</time>
      </trkpt>
      <trkpt lat="49.66221" lon="4.9803">
        <ele>155.87</ele>
        <time>2018-05-28T07:20:39Z</time>
      </trkpt>
      <trkpt lat="49.66238" lon="4.97995">
        <ele>152.99</ele>
        <time>2018-05-28T07:21:04Z</time>
      </trkpt>
      <trkpt lat="49.66253" lon="4.97964">
        <ele>154.91</ele>
        <time>2018-05-28T07:21:27Z</time>
      </trkpt>
      <trkpt lat="49.66274" lon="4.97926">
        <ele>155.39</ele>
        <time>2018-05-28T07:21:51Z</time>
      </trkpt>
      <trkpt lat="49.66288" lon="4.97897">
        <ele>154.91</ele>
        <time>2018-05-28T07:22:11Z</time>
      </trkpt>
      <trkpt lat="49.66308" lon="4.97863">
        <ele>155.87</ele>
        <time>2018-05-28T07:22:33Z</time>
      </trkpt>
      <trkpt lat="49.66319" lon="4.97836">
        <ele>155.87</ele>
        <time>2018-05-28T07:22:51Z</time>
      </trkpt>
      <trkpt lat="49.66338" lon="4.97804">
        <ele>156.35</ele>
        <time>2018-05-28T07:23:13Z</time>
      </trkpt>
      <trkpt lat="49.66354" lon="4.97771">
        <ele>155.39</ele>
        <time>2018-05-28T07:23:36Z</time>
      </trkpt>
      <trkpt lat="49.66371" lon="4.97738">
        <ele>153.95</ele>
        <time>2018-05-28T07:23:56Z</time>
      </trkpt>
      <trkpt lat="49.66387" lon="4.97708">
        <ele>154.91</ele>
        <time>2018-05-28T07:24:18Z</time>
      </trkpt>
      <trkpt lat="49.66402" lon="4.97678">
        <ele>152.99</ele>
        <time>2018-05-28T07:24:38Z</time>
      </trkpt>
      <trkpt lat="49.66421" lon="4.97645">
        <ele>153.95</ele>
        <time>2018-05-28T07:25:00Z</time>
      </trkpt>
      <trkpt lat="49.66436" lon="4.97613">
        <ele>152.99</ele>
        <time>2018-05-28T07:25:22Z</time>
      </trkpt>
      <trkpt lat="49.66456" lon="4.97576">
        <ele>153.47</ele>
        <time>2018-05-28T07:25:46Z</time>
      </trkpt>
      <trkpt lat="49.66464" lon="4.9756">
        <ele>152.03</ele>
        <time>2018-05-28T07:25:58Z</time>
      </trkpt>
      <trkpt lat="49.66482" lon="4.97531">
        <ele>151.54</ele>
        <time>2018-05-28T07:26:17Z</time>
      </trkpt>
      <trkpt lat="49.66494" lon="4.97511">
        <ele>148.66</ele>
        <time>2018-05-28T07:26:33Z</time>
      </trkpt>
      <trkpt lat="49.66512" lon="4.97479">
        <ele>147.7</ele>
        <time>2018-05-28T07:26:54Z</time>
      </trkpt>
      <trkpt lat="49.6652" lon="4.97458">
        <ele>145.78</ele>
        <time>2018-05-28T07:27:09Z</time>
      </trkpt>
      <trkpt lat="49.66529" lon="4.97426">
        <ele>144.34</ele>
        <time>2018-05-28T07:27:29Z</time>
      </trkpt>
      <trkpt lat="49.66546" lon="4.97402">
        <ele>140.97</ele>
        <time>2018-05-28T07:27:49Z</time>
      </trkpt>
      <trkpt lat="49.66563" lon="4.97372">
        <ele>142.89</ele>
        <time>2018-05-28T07:28:10Z</time>
      </trkpt>
      <trkpt lat="49.66579" lon="4.97339">
        <ele>146.74</ele>
        <time>2018-05-28T07:28:30Z</time>
      </trkpt>
      <trkpt lat="49.66596" lon="4.97306">
        <ele>149.62</ele>
        <time>2018-05-28T07:28:52Z</time>
      </trkpt>
      <trkpt lat="49.66612" lon="4.97272">
        <ele>153.47</ele>
        <time>2018-05-28T07:29:15Z</time>
      </trkpt>
      <trkpt lat="49.66627" lon="4.97243">
        <ele>154.43</ele>
        <time>2018-05-28T07:29:33Z</time>
      </trkpt>
      <trkpt lat="49.66634" lon="4.97216">
        <ele>154.43</ele>
        <time>2018-05-28T07:29:50Z</time>
      </trkpt>
      <trkpt lat="49.66644" lon="4.9718">
        <ele>155.39</ele>
        <time>2018-05-28T07:30:11Z</time>
      </trkpt>
      <trkpt lat="49.66646" lon="4.97174">
        <ele>155.39</ele>
        <time>2018-05-28T07:30:15Z</time>
      </trkpt>
      <trkpt lat="49.66659" lon="4.97132">
        <ele>155.39</ele>
        <time>2018-05-28T07:30:40Z</time>
      </trkpt>
      <trkpt lat="49.6667" lon="4.97098">
        <ele>153.95</ele>
        <time>2018-05-28T07:31:00Z</time>
      </trkpt>
      <trkpt lat="49.66683" lon="4.97067">
        <ele>154.43</ele>
        <time>2018-05-28T07:31:20Z</time>
      </trkpt>
      <trkpt lat="49.66697" lon="4.97038">
        <ele>152.99</ele>
        <time>2018-05-28T07:31:40Z</time>
      </trkpt>
      <trkpt lat="49.66715" lon="4.9701">
        <ele>152.51</ele>
        <time>2018-05-28T07:32:00Z</time>
      </trkpt>
      <trkpt lat="49.66734" lon="4.96984">
        <ele>151.06</ele>
        <time>2018-05-28T07:32:21Z</time>
      </trkpt>
      <trkpt lat="49.66752" lon="4.96954">
        <ele>149.62</ele>
        <time>2018-05-28T07:32:42Z</time>
      </trkpt>
      <trkpt lat="49.66772" lon="4.9693">
        <ele>145.3</ele>
        <time>2018-05-28T07:33:03Z</time>
      </trkpt>
      <trkpt lat="49.66788" lon="4.96901">
        <ele>144.82</ele>
        <time>2018-05-28T07:33:25Z</time>
      </trkpt>
      <trkpt lat="49.66798" lon="4.96876">
        <ele>148.18</ele>
        <time>2018-05-28T07:33:40Z</time>
      </trkpt>
      <trkpt lat="49.66812" lon="4.96842">
        <ele>150.1</ele>
        <time>2018-05-28T07:34:01Z</time>
      </trkpt>
      <trkpt lat="49.6682" lon="4.96811">
        <ele>149.62</ele>
        <time>2018-05-28T07:34:20Z</time>
      </trkpt>
      <trkpt lat="49.66826" lon="4.96773">
        <ele>149.14</ele>
        <time>2018-05-28T07:34:40Z</time>
      </trkpt>
      <trkpt lat="49.66828" lon="4.96733">
        <ele>148.18</ele>
        <time>2018-05-28T07:35:01Z</time>
      </trkpt>
      <trkpt lat="49.66827" lon="4.9671">
        <ele>146.74</ele>
        <time>2018-05-28T07:35:15Z</time>
      </trkpt>
      <trkpt lat="49.66823" lon="4.96683">
        <ele>144.82</ele>
        <time>2018-05-28T07:35:29Z</time>
      </trkpt>
      <trkpt lat="49.6682" lon="4.96658">
        <ele>143.85</ele>
        <time>2018-05-28T07:35:44Z</time>
      </trkpt>
      <trkpt lat="49.66813" lon="4.9663">
        <ele>140.97</ele>
        <time>2018-05-28T07:36:01Z</time>
      </trkpt>
      <trkpt lat="49.66803" lon="4.9659">
        <ele>140.49</ele>
        <time>2018-05-28T07:36:22Z</time>
      </trkpt>
      <trkpt lat="49.66797" lon="4.96556">
        <ele>138.57</ele>
        <time>2018-05-28T07:36:41Z</time>
      </trkpt>
      <trkpt lat="49.66791" lon="4.96516">
        <ele>140.49</ele>
        <time>2018-05-28T07:37:02Z</time>
      </trkpt>
      <trkpt lat="49.66789" lon="4.96509">
        <ele>140.97</ele>
        <time>2018-05-28T07:37:06Z</time>
      </trkpt>
      <trkpt lat="49.66783" lon="4.96471">
        <ele>142.89</ele>
        <time>2018-05-28T07:37:27Z</time>
      </trkpt>
      <trkpt lat="49.66777" lon="4.96441">
        <ele>144.34</ele>
        <time>2018-05-28T07:37:45Z</time>
      </trkpt>
      <trkpt lat="49.66771" lon="4.96407">
        <ele>145.3</ele>
        <time>2018-05-28T07:38:03Z</time>
      </trkpt>
      <trkpt lat="49.66764" lon="4.96376">
        <ele>144.34</ele>
        <time>2018-05-28T07:38:21Z</time>
      </trkpt>
      <trkpt lat="49.66762" lon="4.96341">
        <ele>140.97</ele>
        <time>2018-05-28T07:38:42Z</time>
      </trkpt>
      <trkpt lat="49.66762" lon="4.96338">
        <ele>140.49</ele>
        <time>2018-05-28T07:38:44Z</time>
      </trkpt>
      <trkpt lat="49.66764" lon="4.96305">
        <ele>140.01</ele>
        <time>2018-05-28T07:39:02Z</time>
      </trkpt>
      <trkpt lat="49.66769" lon="4.96274">
        <ele>142.41</ele>
        <time>2018-05-28T07:39:19Z</time>
      </trkpt>
      <trkpt lat="49.66776" lon="4.96241">
        <ele>142.41</ele>
        <time>2018-05-28T07:39:37Z</time>
      </trkpt>
      <trkpt lat="49.66777" lon="4.96237">
        <ele>142.41</ele>
        <time>2018-05-28T07:39:39Z</time>
      </trkpt>
      <trkpt lat="49.66786" lon="4.96205">
        <ele>142.41</ele>
        <time>2018-05-28T07:39:58Z</time>
      </trkpt>
      <trkpt lat="49.66794" lon="4.96175">
        <ele>143.85</ele>
        <time>2018-05-28T07:40:16Z</time>
      </trkpt>
      <trkpt lat="49.66803" lon="4.96141">
        <ele>142.89</ele>
        <time>2018-05-28T07:40:36Z</time>
      </trkpt>
      <trkpt lat="49.66817" lon="4.96106">
        <ele>143.37</ele>
        <time>2018-05-28T07:40:56Z</time>
      </trkpt>
      <trkpt lat="49.66831" lon="4.9608">
        <ele>143.37</ele>
        <time>2018-05-28T07:41:13Z</time>
      </trkpt>
      <trkpt lat="49.66843" lon="4.96052">
        <ele>143.37</ele>
        <time>2018-05-28T07:41:31Z</time>
      </trkpt>
      <trkpt lat="49.66853" lon="4.96026">
        <ele>144.34</ele>
        <time>2018-05-28T07:41:47Z</time>
      </trkpt>
      <trkpt lat="49.66859" lon="4.96011">
        <ele>143.85</ele>
        <time>2018-05-28T07:41:56Z</time>
      </trkpt>
      <trkpt lat="49.66871" lon="4.9598">
        <ele>145.3</ele>
        <time>2018-05-28T07:42:15Z</time>
      </trkpt>
      <trkpt lat="49.6688" lon="4.95955">
        <ele>145.78</ele>
        <time>2018-05-28T07:42:32Z</time>
      </trkpt>
      <trkpt lat="49.66888" lon="4.95926">
        <ele>150.1</ele>
        <time>2018-05-28T07:42:49Z</time>
      </trkpt>
      <trkpt lat="49.66891" lon="4.95916">
        <ele>152.99</ele>
        <time>2018-05-28T07:42:55Z</time>
      </trkpt>
      <trkpt lat="49.66901" lon="4.95895">
        <ele>148.66</ele>
        <time>2018-05-28T07:43:12Z</time>
      </trkpt>
      <trkpt lat="49.66919" lon="4.95873">
        <ele>147.7</ele>
        <time>2018-05-28T07:43:30Z</time>
      </trkpt>
      <trkpt lat="49.66929" lon="4.95846">
        <ele>149.62</ele>
        <time>2018-05-28T07:43:47Z</time>
      </trkpt>
      <trkpt lat="49.66933" lon="4.9584">
        <ele>149.62</ele>
        <time>2018-05-28T07:43:51Z</time>
      </trkpt>
      <trkpt lat="49.66947" lon="4.95818">
        <ele>149.14</ele>
        <time>2018-05-28T07:44:08Z</time>
      </trkpt>
      <trkpt lat="49.66966" lon="4.95792">
        <ele>143.85</ele>
        <time>2018-05-28T07:44:28Z</time>
      </trkpt>
      <trkpt lat="49.66986" lon="4.95765">
        <ele>141.45</ele>
        <time>2018-05-28T07:44:49Z</time>
      </trkpt>
      <trkpt lat="49.66998" lon="4.95747">
        <ele>142.89</ele>
        <time>2018-05-28T07:45:03Z</time>
      </trkpt>
      <trkpt lat="49.6702" lon="4.95719">
        <ele>143.85</ele>
        <time>2018-05-28T07:45:24Z</time>
      </trkpt>
      <trkpt lat="49.67035" lon="4.95702">
        <ele>144.82</ele>
        <time>2018-05-28T07:45:40Z</time>
      </trkpt>
      <trkpt lat="49.67057" lon="4.95674">
        <ele>146.26</ele>
        <time>2018-05-28T07:46:02Z</time>
      </trkpt>
      <trkpt lat="49.67075" lon="4.95659">
        <ele>145.3</ele>
        <time>2018-05-28T07:46:20Z</time>
      </trkpt>
      <trkpt lat="49.67096" lon="4.95639">
        <ele>145.3</ele>
        <time>2018-05-28T07:46:40Z</time>
      </trkpt>
      <trkpt lat="49.67115" lon="4.95624">
        <ele>144.34</ele>
        <time>2018-05-28T07:46:58Z</time>
      </trkpt>
      <trkpt lat="49.67139" lon="4.95605">
        <ele>145.78</ele>
        <time>2018-05-28T07:47:20Z</time>
      </trkpt>
      <trkpt lat="49.67155" lon="4.95587">
        <ele>145.78</ele>
        <time>2018-05-28T07:47:37Z</time>
      </trkpt>
      <trkpt lat="49.6717" lon="4.95562">
        <ele>145.78</ele>
        <time>2018-05-28T07:47:56Z</time>
      </trkpt>
      <trkpt lat="49.67184" lon="4.9553">
        <ele>146.74</ele>
        <time>2018-05-28T07:48:16Z</time>
      </trkpt>
      <trkpt lat="49.67196" lon="4.95496">
        <ele>147.7</ele>
        <time>2018-05-28T07:48:37Z</time>
      </trkpt>
      <trkpt lat="49.67209" lon="4.9546">
        <ele>148.18</ele>
        <time>2018-05-28T07:48:58Z</time>
      </trkpt>
      <trkpt lat="49.67217" lon="4.95429">
        <ele>148.18</ele>
        <time>2018-05-28T07:49:16Z</time>
      </trkpt>
      <trkpt lat="49.67226" lon="4.95396">
        <ele>147.7</ele>
        <time>2018-05-28T07:49:36Z</time>
      </trkpt>
      <trkpt lat="49.67237" lon="4.95356">
        <ele>148.66</ele>
        <time>2018-05-28T07:49:58Z</time>
      </trkpt>
      <trkpt lat="49.67248" lon="4.95317">
        <ele>149.14</ele>
        <time>2018-05-28T07:50:21Z</time>
      </trkpt>
      <trkpt lat="49.67252" lon="4.95299">
        <ele>149.14</ele>
        <time>2018-05-28T07:50:33Z</time>
      </trkpt>
      <trkpt lat="49.67264" lon="4.95261">
        <ele>149.14</ele>
        <time>2018-05-28T07:50:55Z</time>
      </trkpt>
      <trkpt lat="49.67272" lon="4.95232">
        <ele>148.66</ele>
        <time>2018-05-28T07:51:12Z</time>
      </trkpt>
      <trkpt lat="49.6728" lon="4.95196">
        <ele>146.74</ele>
        <time>2018-05-28T07:51:33Z</time>
      </trkpt>
      <trkpt lat="49.67286" lon="4.95163">
        <ele>145.78</ele>
        <time>2018-05-28T07:51:52Z</time>
      </trkpt>
      <trkpt lat="49.67294" lon="4.95126">
        <ele>146.26</ele>
        <time>2018-05-28T07:52:11Z</time>
      </trkpt>
      <trkpt lat="49.67303" lon="4.95081">
        <ele>145.3</ele>
        <time>2018-05-28T07:52:36Z</time>
      </trkpt>
      <trkpt lat="49.67308" lon="4.95054">
        <ele>144.34</ele>
        <time>2018-05-28T07:52:53Z</time>
      </trkpt>
      <trkpt lat="49.67314" lon="4.95016">
        <ele>144.34</ele>
        <time>2018-05-28T07:53:13Z</time>
      </trkpt>
      <trkpt lat="49.67321" lon="4.94981">
        <ele>145.3</ele>
        <time>2018-05-28T07:53:31Z</time>
      </trkpt>
      <trkpt lat="49.67329" lon="4.94942">
        <ele>146.74</ele>
        <time>2018-05-28T07:53:52Z</time>
      </trkpt>
      <trkpt lat="49.67337" lon="4.94908">
        <ele>147.7</ele>
        <time>2018-05-28T07:54:12Z</time>
      </trkpt>
      <trkpt lat="49.67344" lon="4.94881">
        <ele>147.7</ele>
        <time>2018-05-28T07:54:29Z</time>
      </trkpt>
      <trkpt lat="49.67353" lon="4.94856">
        <ele>150.1</ele>
        <time>2018-05-28T07:54:42Z</time>
      </trkpt>
      <trkpt lat="49.67357" lon="4.94846">
        <ele>151.54</ele>
        <time>2018-05-28T07:54:50Z</time>
      </trkpt>
      <trkpt lat="49.67364" lon="4.94833">
        <ele>151.54</ele>
        <time>2018-05-28T07:54:59Z</time>
      </trkpt>
      <trkpt lat="49.67376" lon="4.94805">
        <ele>154.43</ele>
        <time>2018-05-28T07:55:17Z</time>
      </trkpt>
      <trkpt lat="49.67392" lon="4.94786">
        <ele>155.39</ele>
        <time>2018-05-28T07:55:33Z</time>
      </trkpt>
      <trkpt lat="49.67408" lon="4.94772">
        <ele>155.39</ele>
        <time>2018-05-28T07:55:49Z</time>
      </trkpt>
      <trkpt lat="49.67429" lon="4.94754">
        <ele>156.35</ele>
        <time>2018-05-28T07:56:08Z</time>
      </trkpt>
      <trkpt lat="49.67451" lon="4.94739">
        <ele>155.87</ele>
        <time>2018-05-28T07:56:28Z</time>
      </trkpt>
      <trkpt lat="49.67473" lon="4.94726">
        <ele>156.35</ele>
        <time>2018-05-28T07:56:46Z</time>
      </trkpt>
      <trkpt lat="49.67497" lon="4.94716">
        <ele>156.35</ele>
        <time>2018-05-28T07:57:06Z</time>
      </trkpt>
      <trkpt lat="49.67516" lon="4.94706">
        <ele>155.87</ele>
        <time>2018-05-28T07:57:23Z</time>
      </trkpt>
      <trkpt lat="49.6754" lon="4.94695">
        <ele>155.87</ele>
        <time>2018-05-28T07:57:43Z</time>
      </trkpt>
      <trkpt lat="49.67565" lon="4.94692">
        <ele>152.03</ele>
        <time>2018-05-28T07:58:05Z</time>
      </trkpt>
      <trkpt lat="49.67588" lon="4.94689">
        <ele>149.62</ele>
        <time>2018-05-28T07:58:26Z</time>
      </trkpt>
      <trkpt lat="49.67616" lon="4.94681">
        <ele>151.54</ele>
        <time>2018-05-28T07:58:47Z</time>
      </trkpt>
      <trkpt lat="49.67644" lon="4.94674">
        <ele>151.54</ele>
        <time>2018-05-28T07:59:09Z</time>
      </trkpt>
      <trkpt lat="49.6767" lon="4.94671">
        <ele>151.54</ele>
        <time>2018-05-28T07:59:31Z</time>
      </trkpt>
      <trkpt lat="49.67691" lon="4.9467">
        <ele>151.06</ele>
        <time>2018-05-28T07:59:49Z</time>
      </trkpt>
      <trkpt lat="49.67709" lon="4.9467">
        <ele>148.66</ele>
        <time>2018-05-28T08:00:05Z</time>
      </trkpt>
      <trkpt lat="49.67735" lon="4.94668">
        <ele>150.58</ele>
        <time>2018-05-28T08:00:25Z</time>
      </trkpt>
      <trkpt lat="49.67759" lon="4.94667">
        <ele>148.18</ele>
        <time>2018-05-28T08:00:45Z</time>
      </trkpt>
      <trkpt lat="49.67775" lon="4.94666">
        <ele>143.37</ele>
        <time>2018-05-28T08:01:01Z</time>
      </trkpt>
      <trkpt lat="49.67799" lon="4.94663">
        <ele>141.93</ele>
        <time>2018-05-28T08:01:18Z</time>
      </trkpt>
      <trkpt lat="49.67818" lon="4.94659">
        <ele>141.93</ele>
        <time>2018-05-28T08:01:34Z</time>
      </trkpt>
      <trkpt lat="49.67841" lon="4.94657">
        <ele>139.05</ele>
        <time>2018-05-28T08:01:54Z</time>
      </trkpt>
      <trkpt lat="49.6786" lon="4.94657">
        <ele>137.61</ele>
        <time>2018-05-28T08:02:11Z</time>
      </trkpt>
      <trkpt lat="49.67886" lon="4.94657">
        <ele>136.64</ele>
        <time>2018-05-28T08:02:31Z</time>
      </trkpt>
      <trkpt lat="49.67905" lon="4.94654">
        <ele>136.16</ele>
        <time>2018-05-28T08:02:47Z</time>
      </trkpt>
      <trkpt lat="49.67927" lon="4.9465">
        <ele>137.61</ele>
        <time>2018-05-28T08:03:05Z</time>
      </trkpt>
      <trkpt lat="49.67932" lon="4.9465">
        <ele>137.61</ele>
        <time>2018-05-28T08:03:11Z</time>
      </trkpt>
      <trkpt lat="49.67957" lon="4.94645">
        <ele>137.61</ele>
        <time>2018-05-28T08:03:31Z</time>
      </trkpt>
      <trkpt lat="49.6798" lon="4.94633">
        <ele>139.53</ele>
        <time>2018-05-28T08:03:49Z</time>
      </trkpt>
      <trkpt lat="49.67991" lon="4.94626">
        <ele>139.53</ele>
        <time>2018-05-28T08:03:58Z</time>
      </trkpt>
      <trkpt lat="49.68013" lon="4.94608">
        <ele>141.45</ele>
        <time>2018-05-28T08:04:19Z</time>
      </trkpt>
      <trkpt lat="49.68033" lon="4.94593">
        <ele>141.45</ele>
        <time>2018-05-28T08:04:36Z</time>
      </trkpt>
      <trkpt lat="49.68053" lon="4.94577">
        <ele>142.41</ele>
        <time>2018-05-28T08:04:54Z</time>
      </trkpt>
      <trkpt lat="49.68079" lon="4.94559">
        <ele>143.37</ele>
        <time>2018-05-28T08:05:16Z</time>
      </trkpt>
      <trkpt lat="49.68099" lon="4.94546">
        <ele>145.3</ele>
        <time>2018-05-28T08:05:35Z</time>
      </trkpt>
      <trkpt lat="49.68114" lon="4.94533">
        <ele>146.74</ele>
        <time>2018-05-28T08:05:50Z</time>
      </trkpt>
      <trkpt lat="49.68135" lon="4.94522">
        <ele>146.26</ele>
        <time>2018-05-28T08:06:08Z</time>
      </trkpt>
      <trkpt lat="49.68158" lon="4.9451">
        <ele>145.78</ele>
        <time>2018-05-28T08:06:29Z</time>
      </trkpt>
      <trkpt lat="49.68182" lon="4.945">
        <ele>147.22</ele>
        <time>2018-05-28T08:06:50Z</time>
      </trkpt>
      <trkpt lat="49.68203" lon="4.94493">
        <ele>145.3</ele>
        <time>2018-05-28T08:07:08Z</time>
      </trkpt>
      <trkpt lat="49.68223" lon="4.94487">
        <ele>142.41</ele>
        <time>2018-05-28T08:07:26Z</time>
      </trkpt>
      <trkpt lat="49.68243" lon="4.9448">
        <ele>139.53</ele>
        <time>2018-05-28T08:07:44Z</time>
      </trkpt>
      <trkpt lat="49.68267" lon="4.94476">
        <ele>139.53</ele>
        <time>2018-05-28T08:08:03Z</time>
      </trkpt>
      <trkpt lat="49.68286" lon="4.94472">
        <ele>137.61</ele>
        <time>2018-05-28T08:08:19Z</time>
      </trkpt>
      <trkpt lat="49.68306" lon="4.94467">
        <ele>138.57</ele>
        <time>2018-05-28T08:08:36Z</time>
      </trkpt>
      <trkpt lat="49.68325" lon="4.94461">
        <ele>138.57</ele>
        <time>2018-05-28T08:08:52Z</time>
      </trkpt>
      <trkpt lat="49.68346" lon="4.94455">
        <ele>137.61</ele>
        <time>2018-05-28T08:09:10Z</time>
      </trkpt>
      <trkpt lat="49.68366" lon="4.9445">
        <ele>136.16</ele>
        <time>2018-05-28T08:09:27Z</time>
      </trkpt>
      <trkpt lat="49.68385" lon="4.94445">
        <ele>134.24</ele>
        <time>2018-05-28T08:09:44Z</time>
      </trkpt>
      <trkpt lat="49.68405" lon="4.94439">
        <ele>133.28</ele>
        <time>2018-05-28T08:10:01Z</time>
      </trkpt>
      <trkpt lat="49.68426" lon="4.94432">
        <ele>133.28</ele>
        <time>2018-05-28T08:10:19Z</time>
      </trkpt>
      <trkpt lat="49.68447" lon="4.94425">
        <ele>136.16</ele>
        <time>2018-05-28T08:10:36Z</time>
      </trkpt>
      <trkpt lat="49.68454" lon="4.94424">
        <ele>136.64</ele>
        <time>2018-05-28T08:10:41Z</time>
      </trkpt>
      <trkpt lat="49.68476" lon="4.94415">
        <ele>136.64</ele>
        <time>2018-05-28T08:11:00Z</time>
      </trkpt>
      <trkpt lat="49.685" lon="4.94402">
        <ele>139.05</ele>
        <time>2018-05-28T08:11:20Z</time>
      </trkpt>
      <trkpt lat="49.68521" lon="4.94391">
        <ele>141.93</ele>
        <time>2018-05-28T08:11:38Z</time>
      </trkpt>
      <trkpt lat="49.68541" lon="4.94375">
        <ele>143.85</ele>
        <time>2018-05-28T08:11:56Z</time>
      </trkpt>
      <trkpt lat="49.68561" lon="4.94362">
        <ele>144.34</ele>
        <time>2018-05-28T08:12:14Z</time>
      </trkpt>
      <trkpt lat="49.68573" lon="4.94368">
        <ele>146.74</ele>
        <time>2018-05-28T08:12:28Z</time>
      </trkpt>
      <trkpt lat="49.68584" lon="4.94368">
        <ele>145.3</ele>
        <time>2018-05-28T08:12:38Z</time>
      </trkpt>
      <trkpt lat="49.68606" lon="4.94364">
        <ele>144.82</ele>
        <time>2018-05-28T08:12:57Z</time>
      </trkpt>
      <trkpt lat="49.68632" lon="4.94359">
        <ele>146.26</ele>
        <time>2018-05-28T08:13:18Z</time>
      </trkpt>
      <trkpt lat="49.68654" lon="4.94355">
        <ele>145.3</ele>
        <time>2018-05-28T08:13:36Z</time>
      </trkpt>
      <trkpt lat="49.68678" lon="4.94352">
        <ele>149.62</ele>
        <time>2018-05-28T08:13:56Z</time>
      </trkpt>
      <trkpt lat="49.68699" lon="4.94349">
        <ele>151.06</ele>
        <time>2018-05-28T08:14:12Z</time>
      </trkpt>
      <trkpt lat="49.6872" lon="4.94346">
        <ele>153.47</ele>
        <time>2018-05-28T08:14:29Z</time>
      </trkpt>
      <trkpt lat="49.6874" lon="4.94342">
        <ele>153.47</ele>
        <time>2018-05-28T08:14:45Z</time>
      </trkpt>
      <trkpt lat="49.68757" lon="4.94338">
        <ele>154.43</ele>
        <time>2018-05-28T08:14:58Z</time>
      </trkpt>
      <trkpt lat="49.68774" lon="4.94327">
        <ele>154.91</ele>
        <time>2018-05-28T08:15:14Z</time>
      </trkpt>
      <trkpt lat="49.68789" lon="4.94324">
        <ele>152.99</ele>
        <time>2018-05-28T08:15:31Z</time>
      </trkpt>
      <trkpt lat="49.6879" lon="4.94324">
        <ele>152.51</ele>
        <time>2018-05-28T08:15:32Z</time>
      </trkpt>
      <trkpt lat="49.68813" lon="4.94319">
        <ele>153.95</ele>
        <time>2018-05-28T08:15:49Z</time>
      </trkpt>
      <trkpt lat="49.68835" lon="4.94305">
        <ele>154.43</ele>
        <time>2018-05-28T08:16:08Z</time>
      </trkpt>
      <trkpt lat="49.68858" lon="4.94293">
        <ele>153.95</ele>
        <time>2018-05-28T08:16:28Z</time>
      </trkpt>
      <trkpt lat="49.6888" lon="4.94281">
        <ele>153.47</ele>
        <time>2018-05-28T08:16:48Z</time>
      </trkpt>
      <trkpt lat="49.68902" lon="4.94267">
        <ele>154.91</ele>
        <time>2018-05-28T08:17:07Z</time>
      </trkpt>
      <trkpt lat="49.68922" lon="4.94251">
        <ele>155.87</ele>
        <time>2018-05-28T08:17:26Z</time>
      </trkpt>
      <trkpt lat="49.68943" lon="4.94235">
        <ele>155.87</ele>
        <time>2018-05-28T08:17:45Z</time>
      </trkpt>
      <trkpt lat="49.68963" lon="4.94213">
        <ele>155.39</ele>
        <time>2018-05-28T08:18:05Z</time>
      </trkpt>
      <trkpt lat="49.68983" lon="4.94187">
        <ele>155.39</ele>
        <time>2018-05-28T08:18:25Z</time>
      </trkpt>
      <trkpt lat="49.68998" lon="4.94164">
        <ele>158.27</ele>
        <time>2018-05-28T08:18:41Z</time>
      </trkpt>
      <trkpt lat="49.69009" lon="4.94139">
        <ele>158.75</ele>
        <time>2018-05-28T08:18:56Z</time>
      </trkpt>
      <trkpt lat="49.69021" lon="4.94106">
        <ele>160.68</ele>
        <time>2018-05-28T08:19:16Z</time>
      </trkpt>
      <trkpt lat="49.69025" lon="4.94096">
        <ele>160.2</ele>
        <time>2018-05-28T08:19:23Z</time>
      </trkpt>
      <trkpt lat="49.69038" lon="4.9407">
        <ele>159.72</ele>
        <time>2018-05-28T08:19:41Z</time>
      </trkpt>
      <trkpt lat="49.6905" lon="4.94042">
        <ele>158.75</ele>
        <time>2018-05-28T08:19:57Z</time>
      </trkpt>
      <trkpt lat="49.69064" lon="4.94014">
        <ele>157.79</ele>
        <time>2018-05-28T08:20:15Z</time>
      </trkpt>
      <trkpt lat="49.69079" lon="4.93989">
        <ele>156.35</ele>
        <time>2018-05-28T08:20:32Z</time>
      </trkpt>
      <trkpt lat="49.69082" lon="4.93983">
        <ele>156.35</ele>
        <time>2018-05-28T08:20:37Z</time>
      </trkpt>
      <trkpt lat="49.69099" lon="4.93956">
        <ele>155.39</ele>
        <time>2018-05-28T08:20:57Z</time>
      </trkpt>
      <trkpt lat="49.69114" lon="4.93933">
        <ele>153.95</ele>
        <time>2018-05-28T08:21:16Z</time>
      </trkpt>
      <trkpt lat="49.69128" lon="4.93909">
        <ele>151.54</ele>
        <time>2018-05-28T08:21:34Z</time>
      </trkpt>
      <trkpt lat="49.69145" lon="4.93887">
        <ele>153.47</ele>
        <time>2018-05-28T08:21:51Z</time>
      </trkpt>
      <trkpt lat="49.6916" lon="4.93868">
        <ele>152.51</ele>
        <time>2018-05-28T08:22:09Z</time>
      </trkpt>
      <trkpt lat="49.6918" lon="4.93849">
        <ele>150.58</ele>
        <time>2018-05-28T08:22:29Z</time>
      </trkpt>
      <trkpt lat="49.69195" lon="4.93833">
        <ele>151.54</ele>
        <time>2018-05-28T08:22:45Z</time>
      </trkpt>
      <trkpt lat="49.69199" lon="4.93827">
        <ele>151.54</ele>
        <time>2018-05-28T08:22:49Z</time>
      </trkpt>
      <trkpt lat="49.69217" lon="4.93805">
        <ele>151.54</ele>
        <time>2018-05-28T08:23:07Z</time>
      </trkpt>
      <trkpt lat="49.69233" lon="4.93781">
        <ele>149.62</ele>
        <time>2018-05-28T08:23:27Z</time>
      </trkpt>
      <trkpt lat="49.69252" lon="4.93763">
        <ele>151.54</ele>
        <time>2018-05-28T08:23:45Z</time>
      </trkpt>
      <trkpt lat="49.69272" lon="4.93741">
        <ele>151.54</ele>
        <time>2018-05-28T08:24:06Z</time>
      </trkpt>
      <trkpt lat="49.69289" lon="4.93715">
        <ele>151.06</ele>
        <time>2018-05-28T08:24:26Z</time>
      </trkpt>
      <trkpt lat="49.69304" lon="4.93693">
        <ele>149.62</ele>
        <time>2018-05-28T08:24:42Z</time>
      </trkpt>
      <trkpt lat="49.69311" lon="4.93679">
        <ele>149.14</ele>
        <time>2018-05-28T08:24:53Z</time>
      </trkpt>
      <trkpt lat="49.69314" lon="4.93674">
        <ele>149.62</ele>
        <time>2018-05-28T08:24:57Z</time>
      </trkpt>
      <trkpt lat="49.69333" lon="4.93647">
        <ele>149.62</ele>
        <time>2018-05-28T08:25:17Z</time>
      </trkpt>
      <trkpt lat="49.69345" lon="4.93617">
        <ele>150.58</ele>
        <time>2018-05-28T08:25:36Z</time>
      </trkpt>
      <trkpt lat="49.69357" lon="4.93586">
        <ele>150.58</ele>
        <time>2018-05-28T08:25:56Z</time>
      </trkpt>
      <trkpt lat="49.69369" lon="4.93554">
        <ele>150.58</ele>
        <time>2018-05-28T08:26:14Z</time>
      </trkpt>
      <trkpt lat="49.69383" lon="4.93521">
        <ele>149.62</ele>
        <time>2018-05-28T08:26:35Z</time>
      </trkpt>
      <trkpt lat="49.69398" lon="4.93491">
        <ele>149.62</ele>
        <time>2018-05-28T08:26:56Z</time>
      </trkpt>
      <trkpt lat="49.69411" lon="4.93465">
        <ele>148.66</ele>
        <time>2018-05-28T08:27:13Z</time>
      </trkpt>
      <trkpt lat="49.69423" lon="4.93447">
        <ele>148.66</ele>
        <time>2018-05-28T08:27:29Z</time>
      </trkpt>
      <trkpt lat="49.69435" lon="4.9343">
        <ele>147.22</ele>
        <time>2018-05-28T08:27:44Z</time>
      </trkpt>
      <trkpt lat="49.69442" lon="4.93427">
        <ele>147.22</ele>
        <time>2018-05-28T08:27:50Z</time>
      </trkpt>
      <trkpt lat="49.69453" lon="4.93421">
        <ele>148.18</ele>
        <time>2018-05-28T08:27:59Z</time>
      </trkpt>
      <trkpt lat="49.69471" lon="4.9341">
        <ele>148.66</ele>
        <time>2018-05-28T08:28:15Z</time>
      </trkpt>
      <trkpt lat="49.69491" lon="4.93401">
        <ele>149.62</ele>
        <time>2018-05-28T08:28:32Z</time>
      </trkpt>
      <trkpt lat="49.69503" lon="4.93397">
        <ele>150.58</ele>
        <time>2018-05-28T08:28:42Z</time>
      </trkpt>
      <trkpt lat="49.69518" lon="4.93383">
        <ele>151.06</ele>
        <time>2018-05-28T08:28:57Z</time>
      </trkpt>
      <trkpt lat="49.69533" lon="4.9337">
        <ele>152.51</ele>
        <time>2018-05-28T08:29:11Z</time>
      </trkpt>
      <trkpt lat="49.69538" lon="4.93367">
        <ele>153.47</ele>
        <time>2018-05-28T08:29:16Z</time>
      </trkpt>
      <trkpt lat="49.69553" lon="4.9336">
        <ele>155.87</ele>
        <time>2018-05-28T08:29:33Z</time>
      </trkpt>
      <trkpt lat="49.69556" lon="4.93359">
        <ele>156.83</ele>
        <time>2018-05-28T08:29:50Z</time>
      </trkpt>
      <trkpt lat="49.69556" lon="4.9336">
        <ele>157.79</ele>
        <time>2018-05-28T08:30:13Z</time>
      </trkpt>
      <trkpt lat="49.69555" lon="4.9336">
        <ele>157.79</ele>
        <time>2018-05-28T08:30:34Z</time>
      </trkpt>
      <trkpt lat="49.69543" lon="4.93364">
        <ele>155.87</ele>
        <time>2018-05-28T08:30:50Z</time>
      </trkpt>
      <trkpt lat="49.6954" lon="4.93369">
        <ele>155.87</ele>
        <time>2018-05-28T08:30:55Z</time>
      </trkpt>
      <trkpt lat="49.69524" lon="4.93382">
        <ele>154.43</ele>
        <time>2018-05-28T08:31:13Z</time>
      </trkpt>
      <trkpt lat="49.6952" lon="4.93386">
        <ele>153.95</ele>
        <time>2018-05-28T08:31:18Z</time>
      </trkpt>
      <trkpt lat="49.69502" lon="4.93392">
        <ele>151.54</ele>
        <time>2018-05-28T08:31:32Z</time>
      </trkpt>
      <trkpt lat="49.6948" lon="4.93406">
        <ele>148.18</ele>
        <time>2018-05-28T08:31:50Z</time>
      </trkpt>
      <trkpt lat="49.6946" lon="4.93416">
        <ele>148.18</ele>
        <time>2018-05-28T08:32:06Z</time>
      </trkpt>
      <trkpt lat="49.69446" lon="4.93418">
        <ele>148.18</ele>
        <time>2018-05-28T08:32:24Z</time>
      </trkpt>
      <trkpt lat="49.69444" lon="4.93417">
        <ele>147.7</ele>
        <time>2018-05-28T08:32:40Z</time>
      </trkpt>
      <trkpt lat="49.69444" lon="4.93418">
        <ele>146.74</ele>
        <time>2018-05-28T08:33:11Z</time>
      </trkpt>
      <trkpt lat="49.69444" lon="4.93418">
        <ele>146.74</ele>
        <time>2018-05-28T08:33:32Z</time>
      </trkpt>
      <trkpt lat="49.69444" lon="4.93418">
        <ele>146.74</ele>
        <time>2018-05-28T08:34:01Z</time>
      </trkpt>
      <trkpt lat="49.69444" lon="4.93417">
        <ele>147.22</ele>
        <time>2018-05-28T08:34:34Z</time>
      </trkpt>
      <trkpt lat="49.69443" lon="4.93417">
        <ele>147.22</ele>
        <time>2018-05-28T08:35:09Z</time>
      </trkpt>
      <trkpt lat="49.69442" lon="4.93418">
        <ele>146.74</ele>
        <time>2018-05-28T08:35:36Z</time>
      </trkpt>
      <trkpt lat="49.69443" lon="4.93422">
        <ele>146.26</ele>
        <time>2018-05-28T08:36:03Z</time>
      </trkpt>
      <trkpt lat="49.69443" lon="4.93422">
        <ele>146.26</ele>
        <time>2018-05-28T08:36:23Z</time>
      </trkpt>
      <trkpt lat="49.69442" lon="4.93421">
        <ele>146.26</ele>
        <time>2018-05-28T08:36:51Z</time>
      </trkpt>
      <trkpt lat="49.69442" lon="4.93422">
        <ele>146.26</ele>
        <time>2018-05-28T08:37:14Z</time>
      </trkpt>
      <trkpt lat="49.69442" lon="4.93422">
        <ele>145.78</ele>
        <time>2018-05-28T08:37:42Z</time>
      </trkpt>
      <trkpt lat="49.69442" lon="4.93423">
        <ele>146.74</ele>
        <time>2018-05-28T08:37:57Z</time>
      </trkpt>
      <trkpt lat="49.69443" lon="4.93425">
        <ele>147.7</ele>
        <time>2018-05-28T08:38:23Z</time>
      </trkpt>
      <trkpt lat="49.69443" lon="4.93424">
        <ele>147.22</ele>
        <time>2018-05-28T08:38:44Z</time>
      </trkpt>
      <trkpt lat="49.69443" lon="4.93423">
        <ele>146.74</ele>
        <time>2018-05-28T08:39:04Z</time>
      </trkpt>
      <trkpt lat="49.69443" lon="4.93424">
        <ele>147.7</ele>
        <time>2018-05-28T08:39:21Z</time>
      </trkpt>
      <trkpt lat="49.69443" lon="4.93424">
        <ele>150.1</ele>
        <time>2018-05-28T08:39:48Z</time>
      </trkpt>
      <trkpt lat="49.69442" lon="4.93424">
        <ele>149.62</ele>
        <time>2018-05-28T08:40:12Z</time>
      </trkpt>
      <trkpt lat="49.69442" lon="4.93425">
        <ele>149.14</ele>
        <time>2018-05-28T08:40:33Z</time>
      </trkpt>
      <trkpt lat="49.69438" lon="4.93429">
        <ele>149.14</ele>
        <time>2018-05-28T08:40:39Z</time>
      </trkpt>
      <trkpt lat="49.69422" lon="4.93457">
        <ele>149.14</ele>
        <time>2018-05-28T08:40:58Z</time>
      </trkpt>
      <trkpt lat="49.69405" lon="4.93491">
        <ele>151.54</ele>
        <time>2018-05-28T08:41:19Z</time>
      </trkpt>
      <trkpt lat="49.69393" lon="4.93513">
        <ele>152.51</ele>
        <time>2018-05-28T08:41:35Z</time>
      </trkpt>
      <trkpt lat="49.69379" lon="4.93539">
        <ele>152.51</ele>
        <time>2018-05-28T08:41:52Z</time>
      </trkpt>
      <trkpt lat="49.69366" lon="4.93571">
        <ele>151.54</ele>
        <time>2018-05-28T08:42:11Z</time>
      </trkpt>
      <trkpt lat="49.69354" lon="4.93601">
        <ele>152.51</ele>
        <time>2018-05-28T08:42:30Z</time>
      </trkpt>
      <trkpt lat="49.69352" lon="4.93608">
        <ele>152.99</ele>
        <time>2018-05-28T08:42:33Z</time>
      </trkpt>
      <trkpt lat="49.69342" lon="4.93635">
        <ele>153.47</ele>
        <time>2018-05-28T08:42:51Z</time>
      </trkpt>
      <trkpt lat="49.69324" lon="4.93667">
        <ele>156.83</ele>
        <time>2018-05-28T08:43:11Z</time>
      </trkpt>
      <trkpt lat="49.69306" lon="4.93695">
        <ele>156.35</ele>
        <time>2018-05-28T08:43:31Z</time>
      </trkpt>
      <trkpt lat="49.69291" lon="4.93723">
        <ele>158.75</ele>
        <time>2018-05-28T08:43:50Z</time>
      </trkpt>
      <trkpt lat="49.69273" lon="4.93743">
        <ele>157.79</ele>
        <time>2018-05-28T08:44:07Z</time>
      </trkpt>
      <trkpt lat="49.69255" lon="4.93765">
        <ele>156.35</ele>
        <time>2018-05-28T08:44:26Z</time>
      </trkpt>
      <trkpt lat="49.69234" lon="4.93788">
        <ele>155.39</ele>
        <time>2018-05-28T08:44:46Z</time>
      </trkpt>
      <trkpt lat="49.69213" lon="4.93814">
        <ele>154.43</ele>
        <time>2018-05-28T08:45:08Z</time>
      </trkpt>
      <trkpt lat="49.69198" lon="4.93834">
        <ele>157.79</ele>
        <time>2018-05-28T08:45:25Z</time>
      </trkpt>
      <trkpt lat="49.69176" lon="4.93851">
        <ele>158.75</ele>
        <time>2018-05-28T08:45:44Z</time>
      </trkpt>
      <trkpt lat="49.69158" lon="4.9387">
        <ele>158.75</ele>
        <time>2018-05-28T08:46:02Z</time>
      </trkpt>
      <trkpt lat="49.69141" lon="4.93895">
        <ele>159.24</ele>
        <time>2018-05-28T08:46:23Z</time>
      </trkpt>
      <trkpt lat="49.69126" lon="4.93919">
        <ele>159.24</ele>
        <time>2018-05-28T08:46:42Z</time>
      </trkpt>
      <trkpt lat="49.69109" lon="4.93943">
        <ele>159.24</ele>
        <time>2018-05-28T08:47:00Z</time>
      </trkpt>
      <trkpt lat="49.69092" lon="4.93969">
        <ele>158.75</ele>
        <time>2018-05-28T08:47:19Z</time>
      </trkpt>
      <trkpt lat="49.69078" lon="4.93991">
        <ele>159.72</ele>
        <time>2018-05-28T08:47:38Z</time>
      </trkpt>
      <trkpt lat="49.69065" lon="4.94015">
        <ele>160.68</ele>
        <time>2018-05-28T08:47:55Z</time>
      </trkpt>
      <trkpt lat="49.69052" lon="4.94044">
        <ele>160.68</ele>
        <time>2018-05-28T08:48:14Z</time>
      </trkpt>
      <trkpt lat="49.6904" lon="4.94076">
        <ele>163.56</ele>
        <time>2018-05-28T08:48:33Z</time>
      </trkpt>
      <trkpt lat="49.69032" lon="4.94097">
        <ele>164.04</ele>
        <time>2018-05-28T08:48:48Z</time>
      </trkpt>
      <trkpt lat="49.69013" lon="4.9413">
        <ele>164.52</ele>
        <time>2018-05-28T08:49:09Z</time>
      </trkpt>
      <trkpt lat="49.68997" lon="4.94165">
        <ele>164.52</ele>
        <time>2018-05-28T08:49:30Z</time>
      </trkpt>
      <trkpt lat="49.68976" lon="4.94197">
        <ele>160.2</ele>
        <time>2018-05-28T08:49:53Z</time>
      </trkpt>
      <trkpt lat="49.68956" lon="4.94225">
        <ele>160.2</ele>
        <time>2018-05-28T08:50:15Z</time>
      </trkpt>
      <trkpt lat="49.68934" lon="4.94244">
        <ele>160.2</ele>
        <time>2018-05-28T08:50:33Z</time>
      </trkpt>
      <trkpt lat="49.68915" lon="4.94261">
        <ele>160.68</ele>
        <time>2018-05-28T08:50:52Z</time>
      </trkpt>
      <trkpt lat="49.68886" lon="4.94275">
        <ele>161.16</ele>
        <time>2018-05-28T08:51:14Z</time>
      </trkpt>
      <trkpt lat="49.6886" lon="4.94291">
        <ele>160.2</ele>
        <time>2018-05-28T08:51:37Z</time>
      </trkpt>
      <trkpt lat="49.6885" lon="4.94295">
        <ele>159.24</ele>
        <time>2018-05-28T08:51:44Z</time>
      </trkpt>
      <trkpt lat="49.68828" lon="4.94308">
        <ele>161.16</ele>
        <time>2018-05-28T08:52:04Z</time>
      </trkpt>
      <trkpt lat="49.68805" lon="4.94319">
        <ele>161.16</ele>
        <time>2018-05-28T08:52:23Z</time>
      </trkpt>
      <trkpt lat="49.68794" lon="4.94325">
        <ele>161.64</ele>
        <time>2018-05-28T08:52:39Z</time>
      </trkpt>
      <trkpt lat="49.68772" lon="4.94333">
        <ele>160.2</ele>
        <time>2018-05-28T08:52:55Z</time>
      </trkpt>
      <trkpt lat="49.68748" lon="4.94339">
        <ele>155.87</ele>
        <time>2018-05-28T08:53:12Z</time>
      </trkpt>
      <trkpt lat="49.68725" lon="4.94345">
        <ele>152.51</ele>
        <time>2018-05-28T08:53:31Z</time>
      </trkpt>
      <trkpt lat="49.68704" lon="4.94347">
        <ele>149.62</ele>
        <time>2018-05-28T08:53:47Z</time>
      </trkpt>
      <trkpt lat="49.68677" lon="4.94351">
        <ele>146.26</ele>
        <time>2018-05-28T08:54:09Z</time>
      </trkpt>
      <trkpt lat="49.68653" lon="4.94355">
        <ele>145.3</ele>
        <time>2018-05-28T08:54:29Z</time>
      </trkpt>
      <trkpt lat="49.68625" lon="4.9436">
        <ele>144.82</ele>
        <time>2018-05-28T08:54:51Z</time>
      </trkpt>
      <trkpt lat="49.68599" lon="4.94366">
        <ele>145.3</ele>
        <time>2018-05-28T08:55:13Z</time>
      </trkpt>
      <trkpt lat="49.68584" lon="4.94368">
        <ele>146.74</ele>
        <time>2018-05-28T08:55:26Z</time>
      </trkpt>
      <trkpt lat="49.68572" lon="4.94366">
        <ele>147.7</ele>
        <time>2018-05-28T08:55:36Z</time>
      </trkpt>
      <trkpt lat="49.6856" lon="4.94358">
        <ele>147.7</ele>
        <time>2018-05-28T08:55:45Z</time>
      </trkpt>
      <trkpt lat="49.6855" lon="4.94365">
        <ele>149.14</ele>
        <time>2018-05-28T08:55:58Z</time>
      </trkpt>
      <trkpt lat="49.68531" lon="4.94385">
        <ele>149.62</ele>
        <time>2018-05-28T08:56:19Z</time>
      </trkpt>
      <trkpt lat="49.6851" lon="4.94401">
        <ele>150.58</ele>
        <time>2018-05-28T08:56:38Z</time>
      </trkpt>
      <trkpt lat="49.68487" lon="4.94409">
        <ele>150.58</ele>
        <time>2018-05-28T08:56:57Z</time>
      </trkpt>
      <trkpt lat="49.68465" lon="4.94419">
        <ele>150.58</ele>
        <time>2018-05-28T08:57:15Z</time>
      </trkpt>
      <trkpt lat="49.68439" lon="4.94427">
        <ele>149.14</ele>
        <time>2018-05-28T08:57:35Z</time>
      </trkpt>
      <trkpt lat="49.68415" lon="4.94436">
        <ele>150.1</ele>
        <time>2018-05-28T08:57:56Z</time>
      </trkpt>
      <trkpt lat="49.6839" lon="4.94445">
        <ele>148.66</ele>
        <time>2018-05-28T08:58:16Z</time>
      </trkpt>
      <trkpt lat="49.68365" lon="4.94452">
        <ele>148.66</ele>
        <time>2018-05-28T08:58:38Z</time>
      </trkpt>
      <trkpt lat="49.68341" lon="4.94459">
        <ele>148.66</ele>
        <time>2018-05-28T08:58:58Z</time>
      </trkpt>
      <trkpt lat="49.68314" lon="4.94465">
        <ele>149.14</ele>
        <time>2018-05-28T08:59:20Z</time>
      </trkpt>
      <trkpt lat="49.68286" lon="4.94468">
        <ele>151.54</ele>
        <time>2018-05-28T08:59:41Z</time>
      </trkpt>
      <trkpt lat="49.68263" lon="4.94477">
        <ele>150.1</ele>
        <time>2018-05-28T09:00:02Z</time>
      </trkpt>
      <trkpt lat="49.68235" lon="4.94483">
        <ele>152.03</ele>
        <time>2018-05-28T09:00:24Z</time>
      </trkpt>
      <trkpt lat="49.68211" lon="4.94491">
        <ele>152.51</ele>
        <time>2018-05-28T09:00:45Z</time>
      </trkpt>
      <trkpt lat="49.68186" lon="4.945">
        <ele>151.06</ele>
        <time>2018-05-28T09:01:04Z</time>
      </trkpt>
      <trkpt lat="49.68161" lon="4.9451">
        <ele>152.03</ele>
        <time>2018-05-28T09:01:27Z</time>
      </trkpt>
      <trkpt lat="49.68138" lon="4.94521">
        <ele>151.54</ele>
        <time>2018-05-28T09:01:46Z</time>
      </trkpt>
      <trkpt lat="49.68114" lon="4.94535">
        <ele>151.06</ele>
        <time>2018-05-28T09:02:07Z</time>
      </trkpt>
      <trkpt lat="49.68092" lon="4.94548">
        <ele>151.54</ele>
        <time>2018-05-28T09:02:26Z</time>
      </trkpt>
      <trkpt lat="49.6807" lon="4.94564">
        <ele>151.54</ele>
        <time>2018-05-28T09:02:46Z</time>
      </trkpt>
      <trkpt lat="49.68047" lon="4.94583">
        <ele>152.99</ele>
        <time>2018-05-28T09:03:07Z</time>
      </trkpt>
      <trkpt lat="49.68024" lon="4.94601">
        <ele>152.99</ele>
        <time>2018-05-28T09:03:27Z</time>
      </trkpt>
      <trkpt lat="49.68003" lon="4.94616">
        <ele>153.95</ele>
        <time>2018-05-28T09:03:47Z</time>
      </trkpt>
      <trkpt lat="49.67981" lon="4.94635">
        <ele>152.99</ele>
        <time>2018-05-28T09:04:08Z</time>
      </trkpt>
      <trkpt lat="49.67955" lon="4.94649">
        <ele>149.62</ele>
        <time>2018-05-28T09:04:30Z</time>
      </trkpt>
      <trkpt lat="49.67932" lon="4.94655">
        <ele>150.1</ele>
        <time>2018-05-28T09:04:50Z</time>
      </trkpt>
      <trkpt lat="49.67911" lon="4.94658">
        <ele>151.06</ele>
        <time>2018-05-28T09:05:07Z</time>
      </trkpt>
      <trkpt lat="49.67887" lon="4.94662">
        <ele>148.18</ele>
        <time>2018-05-28T09:05:27Z</time>
      </trkpt>
      <trkpt lat="49.67865" lon="4.94663">
        <ele>146.74</ele>
        <time>2018-05-28T09:05:47Z</time>
      </trkpt>
      <trkpt lat="49.67837" lon="4.9466">
        <ele>147.22</ele>
        <time>2018-05-28T09:06:07Z</time>
      </trkpt>
      <trkpt lat="49.67813" lon="4.94662">
        <ele>150.1</ele>
        <time>2018-05-28T09:06:29Z</time>
      </trkpt>
      <trkpt lat="49.67789" lon="4.94666">
        <ele>151.54</ele>
        <time>2018-05-28T09:06:48Z</time>
      </trkpt>
      <trkpt lat="49.67763" lon="4.94671">
        <ele>150.58</ele>
        <time>2018-05-28T09:07:10Z</time>
      </trkpt>
      <trkpt lat="49.6774" lon="4.94671">
        <ele>150.58</ele>
        <time>2018-05-28T09:07:28Z</time>
      </trkpt>
      <trkpt lat="49.67714" lon="4.94672">
        <ele>149.62</ele>
        <time>2018-05-28T09:07:50Z</time>
      </trkpt>
      <trkpt lat="49.67689" lon="4.94675">
        <ele>145.78</ele>
        <time>2018-05-28T09:08:10Z</time>
      </trkpt>
      <trkpt lat="49.67663" lon="4.94677">
        <ele>145.78</ele>
        <time>2018-05-28T09:08:32Z</time>
      </trkpt>
      <trkpt lat="49.67637" lon="4.94681">
        <ele>148.18</ele>
        <time>2018-05-28T09:08:51Z</time>
      </trkpt>
      <trkpt lat="49.67616" lon="4.94685">
        <ele>150.1</ele>
        <time>2018-05-28T09:09:09Z</time>
      </trkpt>
      <trkpt lat="49.67595" lon="4.94691">
        <ele>150.58</ele>
        <time>2018-05-28T09:09:27Z</time>
      </trkpt>
      <trkpt lat="49.67572" lon="4.94691">
        <ele>150.58</ele>
        <time>2018-05-28T09:09:45Z</time>
      </trkpt>
      <trkpt lat="49.67552" lon="4.94695">
        <ele>149.62</ele>
        <time>2018-05-28T09:10:02Z</time>
      </trkpt>
      <trkpt lat="49.67535" lon="4.947">
        <ele>150.58</ele>
        <time>2018-05-28T09:10:15Z</time>
      </trkpt>
      <trkpt lat="49.67527" lon="4.94702">
        <ele>151.54</ele>
        <time>2018-05-28T09:10:21Z</time>
      </trkpt>
      <trkpt lat="49.67504" lon="4.94717">
        <ele>153.95</ele>
        <time>2018-05-28T09:10:43Z</time>
      </trkpt>
      <trkpt lat="49.67479" lon="4.94726">
        <ele>153.47</ele>
        <time>2018-05-28T09:11:03Z</time>
      </trkpt>
      <trkpt lat="49.67458" lon="4.94737">
        <ele>153.95</ele>
        <time>2018-05-28T09:11:23Z</time>
      </trkpt>
      <trkpt lat="49.67434" lon="4.94753">
        <ele>154.43</ele>
        <time>2018-05-28T09:11:45Z</time>
      </trkpt>
      <trkpt lat="49.67412" lon="4.94768">
        <ele>155.87</ele>
        <time>2018-05-28T09:12:05Z</time>
      </trkpt>
      <trkpt lat="49.67393" lon="4.94786">
        <ele>156.83</ele>
        <time>2018-05-28T09:12:25Z</time>
      </trkpt>
      <trkpt lat="49.67375" lon="4.94808">
        <ele>157.79</ele>
        <time>2018-05-28T09:12:44Z</time>
      </trkpt>
      <trkpt lat="49.67362" lon="4.94834">
        <ele>158.75</ele>
        <time>2018-05-28T09:13:01Z</time>
      </trkpt>
      <trkpt lat="49.6736" lon="4.94839">
        <ele>158.75</ele>
        <time>2018-05-28T09:13:05Z</time>
      </trkpt>
      <trkpt lat="49.67347" lon="4.94871">
        <ele>159.72</ele>
        <time>2018-05-28T09:13:25Z</time>
      </trkpt>
      <trkpt lat="49.67341" lon="4.94906">
        <ele>161.64</ele>
        <time>2018-05-28T09:13:45Z</time>
      </trkpt>
      <trkpt lat="49.67332" lon="4.94943">
        <ele>160.2</ele>
        <time>2018-05-28T09:14:04Z</time>
      </trkpt>
      <trkpt lat="49.67326" lon="4.94974">
        <ele>156.35</ele>
        <time>2018-05-28T09:14:22Z</time>
      </trkpt>
      <trkpt lat="49.67318" lon="4.95011">
        <ele>155.87</ele>
        <time>2018-05-28T09:14:42Z</time>
      </trkpt>
      <trkpt lat="49.67312" lon="4.95046">
        <ele>154.91</ele>
        <time>2018-05-28T09:15:03Z</time>
      </trkpt>
      <trkpt lat="49.67306" lon="4.95083">
        <ele>153.47</ele>
        <time>2018-05-28T09:15:23Z</time>
      </trkpt>
      <trkpt lat="49.67298" lon="4.95124">
        <ele>153.47</ele>
        <time>2018-05-28T09:15:44Z</time>
      </trkpt>
      <trkpt lat="49.6729" lon="4.95165">
        <ele>153.47</ele>
        <time>2018-05-28T09:16:07Z</time>
      </trkpt>
      <trkpt lat="49.67282" lon="4.95204">
        <ele>153.95</ele>
        <time>2018-05-28T09:16:28Z</time>
      </trkpt>
      <trkpt lat="49.67273" lon="4.95241">
        <ele>153.95</ele>
        <time>2018-05-28T09:16:50Z</time>
      </trkpt>
      <trkpt lat="49.67264" lon="4.95279">
        <ele>154.91</ele>
        <time>2018-05-28T09:17:10Z</time>
      </trkpt>
      <trkpt lat="49.67255" lon="4.95314">
        <ele>152.51</ele>
        <time>2018-05-28T09:17:31Z</time>
      </trkpt>
      <trkpt lat="49.67242" lon="4.95352">
        <ele>151.54</ele>
        <time>2018-05-28T09:17:52Z</time>
      </trkpt>
      <trkpt lat="49.67234" lon="4.95389">
        <ele>151.54</ele>
        <time>2018-05-28T09:18:12Z</time>
      </trkpt>
      <trkpt lat="49.67222" lon="4.95429">
        <ele>150.58</ele>
        <time>2018-05-28T09:18:36Z</time>
      </trkpt>
      <trkpt lat="49.67211" lon="4.95467">
        <ele>149.62</ele>
        <time>2018-05-28T09:18:58Z</time>
      </trkpt>
      <trkpt lat="49.67199" lon="4.95498">
        <ele>149.14</ele>
        <time>2018-05-28T09:19:16Z</time>
      </trkpt>
      <trkpt lat="49.67188" lon="4.9553">
        <ele>150.1</ele>
        <time>2018-05-28T09:19:37Z</time>
      </trkpt>
      <trkpt lat="49.6717" lon="4.95566">
        <ele>152.03</ele>
        <time>2018-05-28T09:19:59Z</time>
      </trkpt>
      <trkpt lat="49.67158" lon="4.95587">
        <ele>150.1</ele>
        <time>2018-05-28T09:20:18Z</time>
      </trkpt>
      <trkpt lat="49.67138" lon="4.95611">
        <ele>151.06</ele>
        <time>2018-05-28T09:20:37Z</time>
      </trkpt>
      <trkpt lat="49.67118" lon="4.95631">
        <ele>151.06</ele>
        <time>2018-05-28T09:20:59Z</time>
      </trkpt>
      <trkpt lat="49.67093" lon="4.95649">
        <ele>151.54</ele>
        <time>2018-05-28T09:21:21Z</time>
      </trkpt>
      <trkpt lat="49.67072" lon="4.9567">
        <ele>151.06</ele>
        <time>2018-05-28T09:21:43Z</time>
      </trkpt>
      <trkpt lat="49.6705" lon="4.95692">
        <ele>150.1</ele>
        <time>2018-05-28T09:22:04Z</time>
      </trkpt>
      <trkpt lat="49.67029" lon="4.95716">
        <ele>152.03</ele>
        <time>2018-05-28T09:22:26Z</time>
      </trkpt>
      <trkpt lat="49.6701" lon="4.95738">
        <ele>153.47</ele>
        <time>2018-05-28T09:22:45Z</time>
      </trkpt>
      <trkpt lat="49.66991" lon="4.95762">
        <ele>152.51</ele>
        <time>2018-05-28T09:23:06Z</time>
      </trkpt>
      <trkpt lat="49.66972" lon="4.95789">
        <ele>152.51</ele>
        <time>2018-05-28T09:23:29Z</time>
      </trkpt>
      <trkpt lat="49.66954" lon="4.95811">
        <ele>152.99</ele>
        <time>2018-05-28T09:23:47Z</time>
      </trkpt>
      <trkpt lat="49.6694" lon="4.95832">
        <ele>153.47</ele>
        <time>2018-05-28T09:24:06Z</time>
      </trkpt>
      <trkpt lat="49.66925" lon="4.95862">
        <ele>154.43</ele>
        <time>2018-05-28T09:24:25Z</time>
      </trkpt>
      <trkpt lat="49.66917" lon="4.95878">
        <ele>154.91</ele>
        <time>2018-05-28T09:24:38Z</time>
      </trkpt>
      <trkpt lat="49.66902" lon="4.95901">
        <ele>154.43</ele>
        <time>2018-05-28T09:24:55Z</time>
      </trkpt>
      <trkpt lat="49.66896" lon="4.95919">
        <ele>154.43</ele>
        <time>2018-05-28T09:25:13Z</time>
      </trkpt>
      <trkpt lat="49.66897" lon="4.9592">
        <ele>153.47</ele>
        <time>2018-05-28T09:25:33Z</time>
      </trkpt>
      <trkpt lat="49.66896" lon="4.9592">
        <ele>153.47</ele>
        <time>2018-05-28T09:26:04Z</time>
      </trkpt>
      <trkpt lat="49.66896" lon="4.95921">
        <ele>153.95</ele>
        <time>2018-05-28T09:26:38Z</time>
      </trkpt>
      <trkpt lat="49.66896" lon="4.9592">
        <ele>153.47</ele>
        <time>2018-05-28T09:27:08Z</time>
      </trkpt>
      <trkpt lat="49.66896" lon="4.9592">
        <ele>153.47</ele>
        <time>2018-05-28T09:27:43Z</time>
      </trkpt>
      <trkpt lat="49.66896" lon="4.9592">
        <ele>153.47</ele>
        <time>2018-05-28T09:28:14Z</time>
      </trkpt>
      <trkpt lat="49.66896" lon="4.95919">
        <ele>152.51</ele>
        <time>2018-05-28T09:28:49Z</time>
      </trkpt>
      <trkpt lat="49.66897" lon="4.95919">
        <ele>153.47</ele>
        <time>2018-05-28T09:29:19Z</time>
      </trkpt>
      <trkpt lat="49.66897" lon="4.95921">
        <ele>154.43</ele>
        <time>2018-05-28T09:29:41Z</time>
      </trkpt>
      <trkpt lat="49.66897" lon="4.95923">
        <ele>154.43</ele>
        <time>2018-05-28T09:30:00Z</time>
      </trkpt>
      <trkpt lat="49.66897" lon="4.95922">
        <ele>154.91</ele>
        <time>2018-05-28T09:30:25Z</time>
      </trkpt>
      <trkpt lat="49.66897" lon="4.95922">
        <ele>154.91</ele>
        <time>2018-05-28T09:30:50Z</time>
      </trkpt>
      <trkpt lat="49.66895" lon="4.95928">
        <ele>154.91</ele>
        <time>2018-05-28T09:31:05Z</time>
      </trkpt>
      <trkpt lat="49.66881" lon="4.95957">
        <ele>154.43</ele>
        <time>2018-05-28T09:31:25Z</time>
      </trkpt>
      <trkpt lat="49.6687" lon="4.95985">
        <ele>152.99</ele>
        <time>2018-05-28T09:31:43Z</time>
      </trkpt>
      <trkpt lat="49.66861" lon="4.96008">
        <ele>149.62</ele>
        <time>2018-05-28T09:31:58Z</time>
      </trkpt>
      <trkpt lat="49.66848" lon="4.96041">
        <ele>151.54</ele>
        <time>2018-05-28T09:32:17Z</time>
      </trkpt>
      <trkpt lat="49.66836" lon="4.96066">
        <ele>151.06</ele>
        <time>2018-05-28T09:32:36Z</time>
      </trkpt>
      <trkpt lat="49.66823" lon="4.96096">
        <ele>149.62</ele>
        <time>2018-05-28T09:32:55Z</time>
      </trkpt>
      <trkpt lat="49.66812" lon="4.96129">
        <ele>149.62</ele>
        <time>2018-05-28T09:33:14Z</time>
      </trkpt>
      <trkpt lat="49.66805" lon="4.96145">
        <ele>150.1</ele>
        <time>2018-05-28T09:33:25Z</time>
      </trkpt>
      <trkpt lat="49.66797" lon="4.96179">
        <ele>152.51</ele>
        <time>2018-05-28T09:33:44Z</time>
      </trkpt>
      <trkpt lat="49.66791" lon="4.96199">
        <ele>154.43</ele>
        <time>2018-05-28T09:33:56Z</time>
      </trkpt>
      <trkpt lat="49.66782" lon="4.96233">
        <ele>154.43</ele>
        <time>2018-05-28T09:34:16Z</time>
      </trkpt>
      <trkpt lat="49.66776" lon="4.96265">
        <ele>155.39</ele>
        <time>2018-05-28T09:34:34Z</time>
      </trkpt>
      <trkpt lat="49.66771" lon="4.96295">
        <ele>154.43</ele>
        <time>2018-05-28T09:34:51Z</time>
      </trkpt>
      <trkpt lat="49.6677" lon="4.96336">
        <ele>153.47</ele>
        <time>2018-05-28T09:35:12Z</time>
      </trkpt>
      <trkpt lat="49.66769" lon="4.96368">
        <ele>152.03</ele>
        <time>2018-05-28T09:35:29Z</time>
      </trkpt>
      <trkpt lat="49.6677" lon="4.96374">
        <ele>152.03</ele>
        <time>2018-05-28T09:35:32Z</time>
      </trkpt>
      <trkpt lat="49.66778" lon="4.9641">
        <ele>153.95</ele>
        <time>2018-05-28T09:35:53Z</time>
      </trkpt>
      <trkpt lat="49.66785" lon="4.96443">
        <ele>153.47</ele>
        <time>2018-05-28T09:36:12Z</time>
      </trkpt>
      <trkpt lat="49.66791" lon="4.96479">
        <ele>153.47</ele>
        <time>2018-05-28T09:36:32Z</time>
      </trkpt>
      <trkpt lat="49.66792" lon="4.96485">
        <ele>152.99</ele>
        <time>2018-05-28T09:36:36Z</time>
      </trkpt>
      <trkpt lat="49.66793" lon="4.96493">
        <ele>152.99</ele>
        <time>2018-05-28T09:36:40Z</time>
      </trkpt>
      <trkpt lat="49.66801" lon="4.96534">
        <ele>152.99</ele>
        <time>2018-05-28T09:37:03Z</time>
      </trkpt>
      <trkpt lat="49.66807" lon="4.96565">
        <ele>153.47</ele>
        <time>2018-05-28T09:37:22Z</time>
      </trkpt>
      <trkpt lat="49.66813" lon="4.96597">
        <ele>154.43</ele>
        <time>2018-05-28T09:37:41Z</time>
      </trkpt>
      <trkpt lat="49.66818" lon="4.96637">
        <ele>152.99</ele>
        <time>2018-05-28T09:38:02Z</time>
      </trkpt>
      <trkpt lat="49.66823" lon="4.96667">
        <ele>152.03</ele>
        <time>2018-05-28T09:38:19Z</time>
      </trkpt>
      <trkpt lat="49.66826" lon="4.96698">
        <ele>151.06</ele>
        <time>2018-05-28T09:38:36Z</time>
      </trkpt>
      <trkpt lat="49.6683" lon="4.96731">
        <ele>148.66</ele>
        <time>2018-05-28T09:38:54Z</time>
      </trkpt>
      <trkpt lat="49.66829" lon="4.96762">
        <ele>148.66</ele>
        <time>2018-05-28T09:39:11Z</time>
      </trkpt>
      <trkpt lat="49.66824" lon="4.96792">
        <ele>148.18</ele>
        <time>2018-05-28T09:39:28Z</time>
      </trkpt>
      <trkpt lat="49.66817" lon="4.96823">
        <ele>145.78</ele>
        <time>2018-05-28T09:39:46Z</time>
      </trkpt>
      <trkpt lat="49.66806" lon="4.96854">
        <ele>145.3</ele>
        <time>2018-05-28T09:40:06Z</time>
      </trkpt>
      <trkpt lat="49.66796" lon="4.96881">
        <ele>144.34</ele>
        <time>2018-05-28T09:40:23Z</time>
      </trkpt>
      <trkpt lat="49.66785" lon="4.96902">
        <ele>144.34</ele>
        <time>2018-05-28T09:40:39Z</time>
      </trkpt>
      <trkpt lat="49.66781" lon="4.9691">
        <ele>145.3</ele>
        <time>2018-05-28T09:40:54Z</time>
      </trkpt>
      <trkpt lat="49.66773" lon="4.96925">
        <ele>145.3</ele>
        <time>2018-05-28T09:41:08Z</time>
      </trkpt>
      <trkpt lat="49.66761" lon="4.96946">
        <ele>143.85</ele>
        <time>2018-05-28T09:41:22Z</time>
      </trkpt>
      <trkpt lat="49.66741" lon="4.96972">
        <ele>145.78</ele>
        <time>2018-05-28T09:41:43Z</time>
      </trkpt>
      <trkpt lat="49.66722" lon="4.97001">
        <ele>146.74</ele>
        <time>2018-05-28T09:42:06Z</time>
      </trkpt>
      <trkpt lat="49.66705" lon="4.97024">
        <ele>144.34</ele>
        <time>2018-05-28T09:42:26Z</time>
      </trkpt>
      <trkpt lat="49.66687" lon="4.97061">
        <ele>146.74</ele>
        <time>2018-05-28T09:42:50Z</time>
      </trkpt>
      <trkpt lat="49.66675" lon="4.97091">
        <ele>148.66</ele>
        <time>2018-05-28T09:43:09Z</time>
      </trkpt>
      <trkpt lat="49.66665" lon="4.97119">
        <ele>149.62</ele>
        <time>2018-05-28T09:43:26Z</time>
      </trkpt>
      <trkpt lat="49.66655" lon="4.97151">
        <ele>151.54</ele>
        <time>2018-05-28T09:43:45Z</time>
      </trkpt>
      <trkpt lat="49.66645" lon="4.97185">
        <ele>152.03</ele>
        <time>2018-05-28T09:44:06Z</time>
      </trkpt>
      <trkpt lat="49.66634" lon="4.97219">
        <ele>153.47</ele>
        <time>2018-05-28T09:44:25Z</time>
      </trkpt>
      <trkpt lat="49.66624" lon="4.9725">
        <ele>153.95</ele>
        <time>2018-05-28T09:44:45Z</time>
      </trkpt>
      <trkpt lat="49.6661" lon="4.97282">
        <ele>153.47</ele>
        <time>2018-05-28T09:45:06Z</time>
      </trkpt>
      <trkpt lat="49.66595" lon="4.97312">
        <ele>152.03</ele>
        <time>2018-05-28T09:45:27Z</time>
      </trkpt>
      <trkpt lat="49.66577" lon="4.97344">
        <ele>152.99</ele>
        <time>2018-05-28T09:45:50Z</time>
      </trkpt>
      <trkpt lat="49.66563" lon="4.9737">
        <ele>152.51</ele>
        <time>2018-05-28T09:46:09Z</time>
      </trkpt>
      <trkpt lat="49.66549" lon="4.97398">
        <ele>153.95</ele>
        <time>2018-05-28T09:46:29Z</time>
      </trkpt>
      <trkpt lat="49.66533" lon="4.97423">
        <ele>154.91</ele>
        <time>2018-05-28T09:46:47Z</time>
      </trkpt>
      <trkpt lat="49.6652" lon="4.97456">
        <ele>154.91</ele>
        <time>2018-05-28T09:47:07Z</time>
      </trkpt>
      <trkpt lat="49.66511" lon="4.97482">
        <ele>154.43</ele>
        <time>2018-05-28T09:47:25Z</time>
      </trkpt>
      <trkpt lat="49.66498" lon="4.97507">
        <ele>153.95</ele>
        <time>2018-05-28T09:47:43Z</time>
      </trkpt>
      <trkpt lat="49.6649" lon="4.97523">
        <ele>153.95</ele>
        <time>2018-05-28T09:47:55Z</time>
      </trkpt>
      <trkpt lat="49.66473" lon="4.97552">
        <ele>152.99</ele>
        <time>2018-05-28T09:48:17Z</time>
      </trkpt>
      <trkpt lat="49.66463" lon="4.97571">
        <ele>151.54</ele>
        <time>2018-05-28T09:48:30Z</time>
      </trkpt>
      <trkpt lat="49.66444" lon="4.97603">
        <ele>152.99</ele>
        <time>2018-05-28T09:48:53Z</time>
      </trkpt>
      <trkpt lat="49.66427" lon="4.97637">
        <ele>153.95</ele>
        <time>2018-05-28T09:49:16Z</time>
      </trkpt>
      <trkpt lat="49.66414" lon="4.97662">
        <ele>155.39</ele>
        <time>2018-05-28T09:49:35Z</time>
      </trkpt>
      <trkpt lat="49.66401" lon="4.97689">
        <ele>155.87</ele>
        <time>2018-05-28T09:49:54Z</time>
      </trkpt>
      <trkpt lat="49.66387" lon="4.97715">
        <ele>156.83</ele>
        <time>2018-05-28T09:50:13Z</time>
      </trkpt>
      <trkpt lat="49.66374" lon="4.9774">
        <ele>157.31</ele>
        <time>2018-05-28T09:50:30Z</time>
      </trkpt>
      <trkpt lat="49.66359" lon="4.97768">
        <ele>157.31</ele>
        <time>2018-05-28T09:50:50Z</time>
      </trkpt>
      <trkpt lat="49.66345" lon="4.97795">
        <ele>156.35</ele>
        <time>2018-05-28T09:51:10Z</time>
      </trkpt>
      <trkpt lat="49.6633" lon="4.97824">
        <ele>155.39</ele>
        <time>2018-05-28T09:51:31Z</time>
      </trkpt>
      <trkpt lat="49.66317" lon="4.97848">
        <ele>154.91</ele>
        <time>2018-05-28T09:51:49Z</time>
      </trkpt>
      <trkpt lat="49.66311" lon="4.97861">
        <ele>155.39</ele>
        <time>2018-05-28T09:51:58Z</time>
      </trkpt>
      <trkpt lat="49.66294" lon="4.97892">
        <ele>155.87</ele>
        <time>2018-05-28T09:52:20Z</time>
      </trkpt>
      <trkpt lat="49.66282" lon="4.97916">
        <ele>156.35</ele>
        <time>2018-05-28T09:52:38Z</time>
      </trkpt>
      <trkpt lat="49.66268" lon="4.97944">
        <ele>155.87</ele>
        <time>2018-05-28T09:52:57Z</time>
      </trkpt>
      <trkpt lat="49.6625" lon="4.97976">
        <ele>155.39</ele>
        <time>2018-05-28T09:53:19Z</time>
      </trkpt>
      <trkpt lat="49.66235" lon="4.98006">
        <ele>156.35</ele>
        <time>2018-05-28T09:53:40Z</time>
      </trkpt>
      <trkpt lat="49.66223" lon="4.98029">
        <ele>156.83</ele>
        <time>2018-05-28T09:53:58Z</time>
      </trkpt>
      <trkpt lat="49.66209" lon="4.98057">
        <ele>158.27</ele>
        <time>2018-05-28T09:54:18Z</time>
      </trkpt>
      <trkpt lat="49.66194" lon="4.98083">
        <ele>156.83</ele>
        <time>2018-05-28T09:54:37Z</time>
      </trkpt>
      <trkpt lat="49.66181" lon="4.98105">
        <ele>157.31</ele>
        <time>2018-05-28T09:54:54Z</time>
      </trkpt>
      <trkpt lat="49.66168" lon="4.9813">
        <ele>155.87</ele>
        <time>2018-05-28T09:55:12Z</time>
      </trkpt>
      <trkpt lat="49.66155" lon="4.98156">
        <ele>155.87</ele>
        <time>2018-05-28T09:55:30Z</time>
      </trkpt>
      <trkpt lat="49.66141" lon="4.98185">
        <ele>156.35</ele>
        <time>2018-05-28T09:55:51Z</time>
      </trkpt>
      <trkpt lat="49.66126" lon="4.98214">
        <ele>157.79</ele>
        <time>2018-05-28T09:56:11Z</time>
      </trkpt>
      <trkpt lat="49.6611" lon="4.98245">
        <ele>155.87</ele>
        <time>2018-05-28T09:56:32Z</time>
      </trkpt>
      <trkpt lat="49.66097" lon="4.98269">
        <ele>157.31</ele>
        <time>2018-05-28T09:56:50Z</time>
      </trkpt>
      <trkpt lat="49.66083" lon="4.98297">
        <ele>156.35</ele>
        <time>2018-05-28T09:57:09Z</time>
      </trkpt>
      <trkpt lat="49.66067" lon="4.98326">
        <ele>155.39</ele>
        <time>2018-05-28T09:57:29Z</time>
      </trkpt>
      <trkpt lat="49.66052" lon="4.98354">
        <ele>154.91</ele>
        <time>2018-05-28T09:57:49Z</time>
      </trkpt>
      <trkpt lat="49.66039" lon="4.9838">
        <ele>155.39</ele>
        <time>2018-05-28T09:58:08Z</time>
      </trkpt>
      <trkpt lat="49.66026" lon="4.98405">
        <ele>154.43</ele>
        <time>2018-05-28T09:58:25Z</time>
      </trkpt>
      <trkpt lat="49.66013" lon="4.98429">
        <ele>154.91</ele>
        <time>2018-05-28T09:58:43Z</time>
      </trkpt>
      <trkpt lat="49.66004" lon="4.98446">
        <ele>154.43</ele>
        <time>2018-05-28T09:58:55Z</time>
      </trkpt>
      <trkpt lat="49.66" lon="4.98452">
        <ele>154.43</ele>
        <time>2018-05-28T09:59:00Z</time>
      </trkpt>
      <trkpt lat="49.65982" lon="4.98482">
        <ele>156.35</ele>
        <time>2018-05-28T09:59:22Z</time>
      </trkpt>
      <trkpt lat="49.65968" lon="4.98505">
        <ele>160.2</ele>
        <time>2018-05-28T09:59:40Z</time>
      </trkpt>
      <trkpt lat="49.65958" lon="4.98526">
        <ele>158.75</ele>
        <time>2018-05-28T09:59:57Z</time>
      </trkpt>
      <trkpt lat="49.65956" lon="4.98528">
        <ele>158.75</ele>
        <time>2018-05-28T09:59:59Z</time>
      </trkpt>
      <trkpt lat="49.65949" lon="4.98546">
        <ele>157.31</ele>
        <time>2018-05-28T10:00:14Z</time>
      </trkpt>
      <trkpt lat="49.65938" lon="4.98575">
        <ele>153.47</ele>
        <time>2018-05-28T10:00:33Z</time>
      </trkpt>
      <trkpt lat="49.65925" lon="4.98599">
        <ele>151.06</ele>
        <time>2018-05-28T10:00:49Z</time>
      </trkpt>
      <trkpt lat="49.65912" lon="4.98625">
        <ele>150.1</ele>
        <time>2018-05-28T10:01:08Z</time>
      </trkpt>
      <trkpt lat="49.65899" lon="4.9865">
        <ele>148.66</ele>
        <time>2018-05-28T10:01:26Z</time>
      </trkpt>
      <trkpt lat="49.65885" lon="4.98676">
        <ele>148.66</ele>
        <time>2018-05-28T10:01:45Z</time>
      </trkpt>
      <trkpt lat="49.65867" lon="4.98708">
        <ele>147.7</ele>
        <time>2018-05-28T10:02:08Z</time>
      </trkpt>
      <trkpt lat="49.65856" lon="4.98733">
        <ele>148.18</ele>
        <time>2018-05-28T10:02:25Z</time>
      </trkpt>
      <trkpt lat="49.65842" lon="4.98762">
        <ele>147.7</ele>
        <time>2018-05-28T10:02:46Z</time>
      </trkpt>
      <trkpt lat="49.65827" lon="4.98788">
        <ele>148.18</ele>
        <time>2018-05-28T10:03:05Z</time>
      </trkpt>
      <trkpt lat="49.65814" lon="4.98811">
        <ele>148.66</ele>
        <time>2018-05-28T10:03:22Z</time>
      </trkpt>
      <trkpt lat="49.65799" lon="4.9884">
        <ele>148.18</ele>
        <time>2018-05-28T10:03:43Z</time>
      </trkpt>
      <trkpt lat="49.65785" lon="4.98866">
        <ele>148.18</ele>
        <time>2018-05-28T10:04:02Z</time>
      </trkpt>
      <trkpt lat="49.65771" lon="4.98891">
        <ele>149.14</ele>
        <time>2018-05-28T10:04:20Z</time>
      </trkpt>
      <trkpt lat="49.65758" lon="4.98916">
        <ele>148.18</ele>
        <time>2018-05-28T10:04:38Z</time>
      </trkpt>
      <trkpt lat="49.65745" lon="4.9894">
        <ele>147.7</ele>
        <time>2018-05-28T10:04:56Z</time>
      </trkpt>
      <trkpt lat="49.65732" lon="4.98964">
        <ele>148.18</ele>
        <time>2018-05-28T10:05:13Z</time>
      </trkpt>
      <trkpt lat="49.65717" lon="4.98988">
        <ele>148.66</ele>
        <time>2018-05-28T10:05:32Z</time>
      </trkpt>
      <trkpt lat="49.65703" lon="4.99015">
        <ele>148.18</ele>
        <time>2018-05-28T10:05:51Z</time>
      </trkpt>
      <trkpt lat="49.65691" lon="4.99035">
        <ele>148.18</ele>
        <time>2018-05-28T10:06:07Z</time>
      </trkpt>
      <trkpt lat="49.65677" lon="4.99057">
        <ele>147.7</ele>
        <time>2018-05-28T10:06:24Z</time>
      </trkpt>
      <trkpt lat="49.65665" lon="4.99076">
        <ele>148.66</ele>
        <time>2018-05-28T10:06:39Z</time>
      </trkpt>
      <trkpt lat="49.65651" lon="4.99101">
        <ele>148.66</ele>
        <time>2018-05-28T10:06:57Z</time>
      </trkpt>
      <trkpt lat="49.65636" lon="4.99126">
        <ele>149.14</ele>
        <time>2018-05-28T10:07:17Z</time>
      </trkpt>
      <trkpt lat="49.65623" lon="4.99146">
        <ele>149.14</ele>
        <time>2018-05-28T10:07:33Z</time>
      </trkpt>
      <trkpt lat="49.65609" lon="4.9917">
        <ele>148.18</ele>
        <time>2018-05-28T10:07:51Z</time>
      </trkpt>
      <trkpt lat="49.65597" lon="4.99193">
        <ele>149.14</ele>
        <time>2018-05-28T10:08:09Z</time>
      </trkpt>
      <trkpt lat="49.65584" lon="4.99213">
        <ele>147.7</ele>
        <time>2018-05-28T10:08:25Z</time>
      </trkpt>
      <trkpt lat="49.65571" lon="4.99238">
        <ele>148.66</ele>
        <time>2018-05-28T10:08:44Z</time>
      </trkpt>
      <trkpt lat="49.65567" lon="4.99244">
        <ele>148.18</ele>
        <time>2018-05-28T10:08:49Z</time>
      </trkpt>
      <trkpt lat="49.65551" lon="4.99226">
        <ele>148.18</ele>
        <time>2018-05-28T10:09:05Z</time>
      </trkpt>
      <trkpt lat="49.65532" lon="4.99211">
        <ele>149.62</ele>
        <time>2018-05-28T10:09:23Z</time>
      </trkpt>
      <trkpt lat="49.65511" lon="4.99198">
        <ele>151.54</ele>
        <time>2018-05-28T10:09:44Z</time>
      </trkpt>
      <trkpt lat="49.65493" lon="4.99195">
        <ele>152.99</ele>
        <time>2018-05-28T10:09:59Z</time>
      </trkpt>
      <trkpt lat="49.65483" lon="4.9923">
        <ele>152.51</ele>
        <time>2018-05-28T10:10:19Z</time>
      </trkpt>
      <trkpt lat="49.65471" lon="4.99263">
        <ele>152.51</ele>
        <time>2018-05-28T10:10:40Z</time>
      </trkpt>
      <trkpt lat="49.65469" lon="4.99266">
        <ele>153.47</ele>
        <time>2018-05-28T10:10:43Z</time>
      </trkpt>
      <trkpt lat="49.65454" lon="4.99282">
        <ele>154.43</ele>
        <time>2018-05-28T10:11:00Z</time>
      </trkpt>
      <trkpt lat="49.65438" lon="4.99262">
        <ele>155.87</ele>
        <time>2018-05-28T10:11:17Z</time>
      </trkpt>
      <trkpt lat="49.65425" lon="4.99238">
        <ele>154.91</ele>
        <time>2018-05-28T10:11:33Z</time>
      </trkpt>
      <trkpt lat="49.65415" lon="4.99219">
        <ele>150.58</ele>
        <time>2018-05-28T10:11:48Z</time>
      </trkpt>
      <trkpt lat="49.65397" lon="4.99194">
        <ele>147.7</ele>
        <time>2018-05-28T10:12:08Z</time>
      </trkpt>
      <trkpt lat="49.65381" lon="4.99177">
        <ele>151.54</ele>
        <time>2018-05-28T10:12:24Z</time>
      </trkpt>
      <trkpt lat="49.65379" lon="4.99173">
        <ele>152.99</ele>
        <time>2018-05-28T10:12:28Z</time>
      </trkpt>
      <trkpt lat="49.65378" lon="4.9917">
        <ele>153.47</ele>
        <time>2018-05-28T10:12:30Z</time>
      </trkpt>
      <trkpt lat="49.65366" lon="4.99154">
        <ele>152.51</ele>
        <time>2018-05-28T10:12:47Z</time>
      </trkpt>
      <trkpt lat="49.65349" lon="4.99129">
        <ele>153.47</ele>
        <time>2018-05-28T10:13:07Z</time>
      </trkpt>
      <trkpt lat="49.65336" lon="4.99102">
        <ele>153.47</ele>
        <time>2018-05-28T10:13:26Z</time>
      </trkpt>
      <trkpt lat="49.65328" lon="4.99078">
        <ele>154.43</ele>
        <time>2018-05-28T10:13:42Z</time>
      </trkpt>
      <trkpt lat="49.65326" lon="4.99071">
        <ele>154.43</ele>
        <time>2018-05-28T10:13:46Z</time>
      </trkpt>
      <trkpt lat="49.65316" lon="4.99039">
        <ele>155.87</ele>
        <time>2018-05-28T10:14:05Z</time>
      </trkpt>
      <trkpt lat="49.65298" lon="4.99021">
        <ele>155.39</ele>
        <time>2018-05-28T10:14:22Z</time>
      </trkpt>
      <trkpt lat="49.65279" lon="4.98999">
        <ele>155.39</ele>
        <time>2018-05-28T10:14:41Z</time>
      </trkpt>
      <trkpt lat="49.65262" lon="4.98987">
        <ele>155.87</ele>
        <time>2018-05-28T10:14:58Z</time>
      </trkpt>
      <trkpt lat="49.65244" lon="4.98971">
        <ele>156.35</ele>
        <time>2018-05-28T10:15:15Z</time>
      </trkpt>
      <trkpt lat="49.65226" lon="4.98955">
        <ele>156.35</ele>
        <time>2018-05-28T10:15:32Z</time>
      </trkpt>
      <trkpt lat="49.65202" lon="4.98934">
        <ele>154.43</ele>
        <time>2018-05-28T10:15:55Z</time>
      </trkpt>
      <trkpt lat="49.65185" lon="4.98918">
        <ele>155.87</ele>
        <time>2018-05-28T10:16:12Z</time>
      </trkpt>
      <trkpt lat="49.65166" lon="4.98902">
        <ele>156.35</ele>
        <time>2018-05-28T10:16:31Z</time>
      </trkpt>
      <trkpt lat="49.6515" lon="4.98888">
        <ele>156.35</ele>
        <time>2018-05-28T10:16:47Z</time>
      </trkpt>
      <trkpt lat="49.65134" lon="4.98873">
        <ele>155.87</ele>
        <time>2018-05-28T10:17:04Z</time>
      </trkpt>
      <trkpt lat="49.65129" lon="4.98868">
        <ele>156.35</ele>
        <time>2018-05-28T10:17:09Z</time>
      </trkpt>
      <trkpt lat="49.65106" lon="4.98846">
        <ele>156.83</ele>
        <time>2018-05-28T10:17:32Z</time>
      </trkpt>
      <trkpt lat="49.65087" lon="4.98827">
        <ele>156.35</ele>
        <time>2018-05-28T10:17:51Z</time>
      </trkpt>
      <trkpt lat="49.65064" lon="4.98804">
        <ele>154.91</ele>
        <time>2018-05-28T10:18:12Z</time>
      </trkpt>
      <trkpt lat="49.65046" lon="4.98786">
        <ele>156.83</ele>
        <time>2018-05-28T10:18:30Z</time>
      </trkpt>
      <trkpt lat="49.65025" lon="4.98766">
        <ele>155.87</ele>
        <time>2018-05-28T10:18:51Z</time>
      </trkpt>
      <trkpt lat="49.65007" lon="4.98749">
        <ele>156.35</ele>
        <time>2018-05-28T10:19:09Z</time>
      </trkpt>
      <trkpt lat="49.64987" lon="4.98729">
        <ele>157.79</ele>
        <time>2018-05-28T10:19:30Z</time>
      </trkpt>
      <trkpt lat="49.6497" lon="4.98715">
        <ele>158.27</ele>
        <time>2018-05-28T10:19:47Z</time>
      </trkpt>
      <trkpt lat="49.64952" lon="4.98698">
        <ele>158.27</ele>
        <time>2018-05-28T10:20:05Z</time>
      </trkpt>
      <trkpt lat="49.64931" lon="4.9868">
        <ele>159.24</ele>
        <time>2018-05-28T10:20:26Z</time>
      </trkpt>
      <trkpt lat="49.64913" lon="4.98676">
        <ele>157.79</ele>
        <time>2018-05-28T10:20:43Z</time>
      </trkpt>
      <trkpt lat="49.64895" lon="4.98664">
        <ele>157.79</ele>
        <time>2018-05-28T10:21:00Z</time>
      </trkpt>
      <trkpt lat="49.64876" lon="4.98648">
        <ele>157.79</ele>
        <time>2018-05-28T10:21:19Z</time>
      </trkpt>
      <trkpt lat="49.64856" lon="4.98635">
        <ele>159.24</ele>
        <time>2018-05-28T10:21:37Z</time>
      </trkpt>
      <trkpt lat="49.6484" lon="4.98624">
        <ele>159.72</ele>
        <time>2018-05-28T10:21:53Z</time>
      </trkpt>
      <trkpt lat="49.64818" lon="4.9861">
        <ele>159.72</ele>
        <time>2018-05-28T10:22:14Z</time>
      </trkpt>
      <trkpt lat="49.64797" lon="4.98599">
        <ele>159.24</ele>
        <time>2018-05-28T10:22:33Z</time>
      </trkpt>
      <trkpt lat="49.64778" lon="4.98587">
        <ele>160.68</ele>
        <time>2018-05-28T10:22:50Z</time>
      </trkpt>
      <trkpt lat="49.6476" lon="4.98578">
        <ele>159.72</ele>
        <time>2018-05-28T10:23:07Z</time>
      </trkpt>
      <trkpt lat="49.64741" lon="4.98568">
        <ele>158.27</ele>
        <time>2018-05-28T10:23:24Z</time>
      </trkpt>
      <trkpt lat="49.6472" lon="4.98556">
        <ele>156.83</ele>
        <time>2018-05-28T10:23:43Z</time>
      </trkpt>
      <trkpt lat="49.647" lon="4.98546">
        <ele>156.35</ele>
        <time>2018-05-28T10:24:02Z</time>
      </trkpt>
      <trkpt lat="49.6468" lon="4.98535">
        <ele>156.83</ele>
        <time>2018-05-28T10:24:21Z</time>
      </trkpt>
      <trkpt lat="49.64678" lon="4.98534">
        <ele>156.83</ele>
        <time>2018-05-28T10:24:23Z</time>
      </trkpt>
      <trkpt lat="49.64656" lon="4.98522">
        <ele>159.24</ele>
        <time>2018-05-28T10:24:43Z</time>
      </trkpt>
      <trkpt lat="49.64641" lon="4.98513">
        <ele>161.16</ele>
        <time>2018-05-28T10:24:57Z</time>
      </trkpt>
      <trkpt lat="49.64624" lon="4.98504">
        <ele>160.2</ele>
        <time>2018-05-28T10:25:13Z</time>
      </trkpt>
      <trkpt lat="49.64618" lon="4.98501">
        <ele>159.72</ele>
        <time>2018-05-28T10:25:18Z</time>
      </trkpt>
      <trkpt lat="49.64605" lon="4.98494">
        <ele>159.72</ele>
        <time>2018-05-28T10:25:30Z</time>
      </trkpt>
      <trkpt lat="49.64584" lon="4.98482">
        <ele>160.68</ele>
        <time>2018-05-28T10:25:50Z</time>
      </trkpt>
      <trkpt lat="49.64565" lon="4.9847">
        <ele>158.75</ele>
        <time>2018-05-28T10:26:08Z</time>
      </trkpt>
      <trkpt lat="49.64546" lon="4.9846">
        <ele>157.79</ele>
        <time>2018-05-28T10:26:25Z</time>
      </trkpt>
      <trkpt lat="49.64529" lon="4.98451">
        <ele>157.79</ele>
        <time>2018-05-28T10:26:41Z</time>
      </trkpt>
      <trkpt lat="49.64507" lon="4.9844">
        <ele>156.83</ele>
        <time>2018-05-28T10:27:02Z</time>
      </trkpt>
      <trkpt lat="49.64492" lon="4.9843">
        <ele>156.35</ele>
        <time>2018-05-28T10:27:17Z</time>
      </trkpt>
      <trkpt lat="49.64474" lon="4.9842">
        <ele>152.99</ele>
        <time>2018-05-28T10:27:35Z</time>
      </trkpt>
      <trkpt lat="49.64457" lon="4.98406">
        <ele>150.58</ele>
        <time>2018-05-28T10:27:51Z</time>
      </trkpt>
      <trkpt lat="49.6444" lon="4.98397">
        <ele>155.39</ele>
        <time>2018-05-28T10:28:07Z</time>
      </trkpt>
      <trkpt lat="49.64423" lon="4.98389">
        <ele>155.87</ele>
        <time>2018-05-28T10:28:22Z</time>
      </trkpt>
      <trkpt lat="49.64419" lon="4.98387">
        <ele>155.87</ele>
        <time>2018-05-28T10:28:26Z</time>
      </trkpt>
      <trkpt lat="49.644" lon="4.98372">
        <ele>158.75</ele>
        <time>2018-05-28T10:28:43Z</time>
      </trkpt>
      <trkpt lat="49.64382" lon="4.98358">
        <ele>156.35</ele>
        <time>2018-05-28T10:29:00Z</time>
      </trkpt>
      <trkpt lat="49.64361" lon="4.98343">
        <ele>154.91</ele>
        <time>2018-05-28T10:29:21Z</time>
      </trkpt>
      <trkpt lat="49.64346" lon="4.98332">
        <ele>158.27</ele>
        <time>2018-05-28T10:29:36Z</time>
      </trkpt>
      <trkpt lat="49.64331" lon="4.98319">
        <ele>158.27</ele>
        <time>2018-05-28T10:29:51Z</time>
      </trkpt>
      <trkpt lat="49.64319" lon="4.98308">
        <ele>157.79</ele>
        <time>2018-05-28T10:30:04Z</time>
      </trkpt>
      <trkpt lat="49.64315" lon="4.98305">
        <ele>157.31</ele>
        <time>2018-05-28T10:30:08Z</time>
      </trkpt>
      <trkpt lat="49.64295" lon="4.98288">
        <ele>157.79</ele>
        <time>2018-05-28T10:30:27Z</time>
      </trkpt>
      <trkpt lat="49.6428" lon="4.98275">
        <ele>152.51</ele>
        <time>2018-05-28T10:30:44Z</time>
      </trkpt>
      <trkpt lat="49.64267" lon="4.98265">
        <ele>150.58</ele>
        <time>2018-05-28T10:30:58Z</time>
      </trkpt>
      <trkpt lat="49.64253" lon="4.98254">
        <ele>152.51</ele>
        <time>2018-05-28T10:31:12Z</time>
      </trkpt>
      <trkpt lat="49.64239" lon="4.98241">
        <ele>155.39</ele>
        <time>2018-05-28T10:31:26Z</time>
      </trkpt>
      <trkpt lat="49.64227" lon="4.98232">
        <ele>156.35</ele>
        <time>2018-05-28T10:31:37Z</time>
      </trkpt>
      <trkpt lat="49.64213" lon="4.98216">
        <ele>156.83</ele>
        <time>2018-05-28T10:31:52Z</time>
      </trkpt>
      <trkpt lat="49.64199" lon="4.98202">
        <ele>160.2</ele>
        <time>2018-05-28T10:32:06Z</time>
      </trkpt>
      <trkpt lat="49.64186" lon="4.98189">
        <ele>159.24</ele>
        <time>2018-05-28T10:32:19Z</time>
      </trkpt>
      <trkpt lat="49.64178" lon="4.98182">
        <ele>158.75</ele>
        <time>2018-05-28T10:32:27Z</time>
      </trkpt>
      <trkpt lat="49.6416" lon="4.98164">
        <ele>158.75</ele>
        <time>2018-05-28T10:32:46Z</time>
      </trkpt>
      <trkpt lat="49.64145" lon="4.98151">
        <ele>157.79</ele>
        <time>2018-05-28T10:33:04Z</time>
      </trkpt>
      <trkpt lat="49.6413" lon="4.98138">
        <ele>155.87</ele>
        <time>2018-05-28T10:33:20Z</time>
      </trkpt>
      <trkpt lat="49.64114" lon="4.98121">
        <ele>156.83</ele>
        <time>2018-05-28T10:33:36Z</time>
      </trkpt>
      <trkpt lat="49.641" lon="4.9811">
        <ele>158.75</ele>
        <time>2018-05-28T10:33:50Z</time>
      </trkpt>
      <trkpt lat="49.64085" lon="4.98095">
        <ele>159.24</ele>
        <time>2018-05-28T10:34:07Z</time>
      </trkpt>
      <trkpt lat="49.64069" lon="4.98081">
        <ele>159.72</ele>
        <time>2018-05-28T10:34:22Z</time>
      </trkpt>
      <trkpt lat="49.64053" lon="4.98068">
        <ele>160.68</ele>
        <time>2018-05-28T10:34:38Z</time>
      </trkpt>
      <trkpt lat="49.64038" lon="4.98051">
        <ele>160.68</ele>
        <time>2018-05-28T10:34:53Z</time>
      </trkpt>
      <trkpt lat="49.64026" lon="4.98039">
        <ele>162.6</ele>
        <time>2018-05-28T10:35:08Z</time>
      </trkpt>
      <trkpt lat="49.64009" lon="4.98022">
        <ele>162.6</ele>
        <time>2018-05-28T10:35:24Z</time>
      </trkpt>
      <trkpt lat="49.63995" lon="4.98007">
        <ele>164.52</ele>
        <time>2018-05-28T10:35:41Z</time>
      </trkpt>
      <trkpt lat="49.63978" lon="4.97993">
        <ele>163.08</ele>
        <time>2018-05-28T10:35:57Z</time>
      </trkpt>
      <trkpt lat="49.63964" lon="4.97977">
        <ele>162.12</ele>
        <time>2018-05-28T10:36:12Z</time>
      </trkpt>
      <trkpt lat="49.63948" lon="4.97964">
        <ele>163.56</ele>
        <time>2018-05-28T10:36:29Z</time>
      </trkpt>
      <trkpt lat="49.63933" lon="4.97949">
        <ele>164.52</ele>
        <time>2018-05-28T10:36:44Z</time>
      </trkpt>
      <trkpt lat="49.6392" lon="4.97936">
        <ele>164.04</ele>
        <time>2018-05-28T10:37:00Z</time>
      </trkpt>
      <trkpt lat="49.63907" lon="4.97925">
        <ele>161.64</ele>
        <time>2018-05-28T10:37:15Z</time>
      </trkpt>
      <trkpt lat="49.63895" lon="4.97916">
        <ele>161.64</ele>
        <time>2018-05-28T10:37:28Z</time>
      </trkpt>
      <trkpt lat="49.63881" lon="4.979">
        <ele>160.68</ele>
        <time>2018-05-28T10:37:41Z</time>
      </trkpt>
      <trkpt lat="49.6387" lon="4.97887">
        <ele>164.04</ele>
        <time>2018-05-28T10:37:54Z</time>
      </trkpt>
      <trkpt lat="49.6386" lon="4.97875">
        <ele>162.6</ele>
        <time>2018-05-28T10:38:06Z</time>
      </trkpt>
      <trkpt lat="49.63848" lon="4.97866">
        <ele>161.64</ele>
        <time>2018-05-28T10:38:18Z</time>
      </trkpt>
      <trkpt lat="49.63832" lon="4.97852">
        <ele>161.16</ele>
        <time>2018-05-28T10:38:31Z</time>
      </trkpt>
      <trkpt lat="49.6382" lon="4.97841">
        <ele>163.56</ele>
        <time>2018-05-28T10:38:46Z</time>
      </trkpt>
      <trkpt lat="49.63808" lon="4.97826">
        <ele>166.45</ele>
        <time>2018-05-28T10:39:00Z</time>
      </trkpt>
      <trkpt lat="49.63805" lon="4.97822">
        <ele>167.41</ele>
        <time>2018-05-28T10:39:03Z</time>
      </trkpt>
      <trkpt lat="49.63795" lon="4.97812">
        <ele>166.93</ele>
        <time>2018-05-28T10:39:14Z</time>
      </trkpt>
      <trkpt lat="49.63789" lon="4.97809">
        <ele>166.45</ele>
        <time>2018-05-28T10:39:20Z</time>
      </trkpt>
      <trkpt lat="49.63776" lon="4.9779">
        <ele>169.33</ele>
        <time>2018-05-28T10:39:35Z</time>
      </trkpt>
      <trkpt lat="49.63764" lon="4.97779">
        <ele>167.89</ele>
        <time>2018-05-28T10:39:46Z</time>
      </trkpt>
      <trkpt lat="49.63752" lon="4.97767">
        <ele>168.37</ele>
        <time>2018-05-28T10:40:00Z</time>
      </trkpt>
      <trkpt lat="49.63735" lon="4.9776">
        <ele>168.85</ele>
        <time>2018-05-28T10:40:15Z</time>
      </trkpt>
      <trkpt lat="49.63733" lon="4.97758">
        <ele>168.85</ele>
        <time>2018-05-28T10:40:17Z</time>
      </trkpt>
      <trkpt lat="49.63715" lon="4.97743">
        <ele>171.73</ele>
        <time>2018-05-28T10:40:34Z</time>
      </trkpt>
      <trkpt lat="49.63713" lon="4.97741">
        <ele>171.73</ele>
        <time>2018-05-28T10:40:37Z</time>
      </trkpt>
      <trkpt lat="49.63698" lon="4.97731">
        <ele>172.69</ele>
        <time>2018-05-28T10:40:52Z</time>
      </trkpt>
      <trkpt lat="49.63687" lon="4.97723">
        <ele>171.25</ele>
        <time>2018-05-28T10:41:04Z</time>
      </trkpt>
      <trkpt lat="49.63672" lon="4.97712">
        <ele>169.81</ele>
        <time>2018-05-28T10:41:21Z</time>
      </trkpt>
      <trkpt lat="49.63659" lon="4.97702">
        <ele>172.21</ele>
        <time>2018-05-28T10:41:34Z</time>
      </trkpt>
      <trkpt lat="49.63653" lon="4.97697">
        <ele>172.69</ele>
        <time>2018-05-28T10:41:39Z</time>
      </trkpt>
      <trkpt lat="49.63635" lon="4.9768">
        <ele>172.21</ele>
        <time>2018-05-28T10:41:58Z</time>
      </trkpt>
      <trkpt lat="49.63618" lon="4.97665">
        <ele>170.29</ele>
        <time>2018-05-28T10:42:15Z</time>
      </trkpt>
      <trkpt lat="49.63607" lon="4.97659">
        <ele>171.73</ele>
        <time>2018-05-28T10:42:26Z</time>
      </trkpt>
      <trkpt lat="49.63603" lon="4.9766">
        <ele>171.73</ele>
        <time>2018-05-28T10:42:29Z</time>
      </trkpt>
      <trkpt lat="49.63585" lon="4.97675">
        <ele>167.89</ele>
        <time>2018-05-28T10:42:46Z</time>
      </trkpt>
      <trkpt lat="49.63576" lon="4.97687">
        <ele>165</ele>
        <time>2018-05-28T10:42:58Z</time>
      </trkpt>
      <trkpt lat="49.63564" lon="4.97707">
        <ele>160.2</ele>
        <time>2018-05-28T10:43:15Z</time>
      </trkpt>
      <trkpt lat="49.63549" lon="4.97729">
        <ele>162.6</ele>
        <time>2018-05-28T10:43:32Z</time>
      </trkpt>
      <trkpt lat="49.6354" lon="4.97754">
        <ele>165.96</ele>
        <time>2018-05-28T10:43:48Z</time>
      </trkpt>
      <trkpt lat="49.63529" lon="4.97781">
        <ele>163.56</ele>
        <time>2018-05-28T10:44:07Z</time>
      </trkpt>
      <trkpt lat="49.63512" lon="4.97797">
        <ele>164.04</ele>
        <time>2018-05-28T10:44:24Z</time>
      </trkpt>
      <trkpt lat="49.63497" lon="4.97812">
        <ele>162.12</ele>
        <time>2018-05-28T10:44:39Z</time>
      </trkpt>
      <trkpt lat="49.63484" lon="4.97831">
        <ele>161.64</ele>
        <time>2018-05-28T10:44:56Z</time>
      </trkpt>
      <trkpt lat="49.63478" lon="4.97847">
        <ele>160.2</ele>
        <time>2018-05-28T10:45:07Z</time>
      </trkpt>
      <trkpt lat="49.63461" lon="4.97866">
        <ele>165.48</ele>
        <time>2018-05-28T10:45:26Z</time>
      </trkpt>
      <trkpt lat="49.63447" lon="4.97887">
        <ele>166.45</ele>
        <time>2018-05-28T10:45:44Z</time>
      </trkpt>
      <trkpt lat="49.63444" lon="4.9789">
        <ele>166.93</ele>
        <time>2018-05-28T10:45:47Z</time>
      </trkpt>
      <trkpt lat="49.63428" lon="4.97899">
        <ele>167.41</ele>
        <time>2018-05-28T10:46:04Z</time>
      </trkpt>
      <trkpt lat="49.63427" lon="4.979">
        <ele>167.41</ele>
        <time>2018-05-28T10:46:05Z</time>
      </trkpt>
      <trkpt lat="49.63417" lon="4.97904">
        <ele>168.85</ele>
        <time>2018-05-28T10:46:14Z</time>
      </trkpt>
      <trkpt lat="49.63401" lon="4.9792">
        <ele>168.85</ele>
        <time>2018-05-28T10:46:32Z</time>
      </trkpt>
      <trkpt lat="49.63399" lon="4.97921">
        <ele>168.85</ele>
        <time>2018-05-28T10:46:34Z</time>
      </trkpt>
      <trkpt lat="49.63391" lon="4.97928">
        <ele>169.33</ele>
        <time>2018-05-28T10:46:42Z</time>
      </trkpt>
      <trkpt lat="49.63384" lon="4.9794">
        <ele>168.85</ele>
        <time>2018-05-28T10:46:52Z</time>
      </trkpt>
      <trkpt lat="49.63385" lon="4.97947">
        <ele>168.85</ele>
        <time>2018-05-28T10:46:56Z</time>
      </trkpt>
      <trkpt lat="49.63393" lon="4.97978">
        <ele>170.29</ele>
        <time>2018-05-28T10:47:13Z</time>
      </trkpt>
      <trkpt lat="49.634" lon="4.97998">
        <ele>170.29</ele>
        <time>2018-05-28T10:47:26Z</time>
      </trkpt>
      <trkpt lat="49.63403" lon="4.98004">
        <ele>170.77</ele>
        <time>2018-05-28T10:47:30Z</time>
      </trkpt>
      <trkpt lat="49.63408" lon="4.98011">
        <ele>171.73</ele>
        <time>2018-05-28T10:47:36Z</time>
      </trkpt>
      <trkpt lat="49.63411" lon="4.98012">
        <ele>172.21</ele>
        <time>2018-05-28T10:47:39Z</time>
      </trkpt>
      <trkpt lat="49.63425" lon="4.9803">
        <ele>169.33</ele>
        <time>2018-05-28T10:47:57Z</time>
      </trkpt>
      <trkpt lat="49.63441" lon="4.9805">
        <ele>170.77</ele>
        <time>2018-05-28T10:48:15Z</time>
      </trkpt>
      <trkpt lat="49.6344" lon="4.98049">
        <ele>173.17</ele>
        <time>2018-05-28T10:48:27Z</time>
      </trkpt>
      <trkpt lat="49.63443" lon="4.9805">
        <ele>175.1</ele>
        <time>2018-05-28T10:48:43Z</time>
      </trkpt>
      <trkpt lat="49.63447" lon="4.98051">
        <ele>174.62</ele>
        <time>2018-05-28T10:48:57Z</time>
      </trkpt>
      <trkpt lat="49.63447" lon="4.98051">
        <ele>175.1</ele>
        <time>2018-05-28T10:49:17Z</time>
      </trkpt>
      <trkpt lat="49.63446" lon="4.9805">
        <ele>175.1</ele>
        <time>2018-05-28T10:49:18Z</time>
      </trkpt>
      <trkpt lat="49.63457" lon="4.98023">
        <ele>179.42</ele>
        <time>2018-05-28T10:49:36Z</time>
      </trkpt>
      <trkpt lat="49.63457" lon="4.98025">
        <ele>180.38</ele>
        <time>2018-05-28T10:49:42Z</time>
      </trkpt>
    </trkseg>
  </trk>
</gpx>